Time,TemperatureF,DewpointF,PressureIn,WindDirection,WindDirectionDegrees,WindSpeedMPH,WindSpeedGustMPH,Humidity,HourlyPrecipIn,Conditions,Clouds,dailyrainin,SoftwareType,DateUTC
2013-03-20 00:00:00,41.5,21.7,30.15,WNW,285,6.0,6.0,45,0.00,,,0.00,Wunderground v.1.15,2013-03-20 04:00:00,
2013-03-20 00:04:00,42.3,21.4,30.15,WSW,238,5.0,6.0,43,0.00,,,0.00,Wunderground v.1.15,2013-03-20 04:04:00,
2013-03-20 00:10:00,42.0,21.1,30.15,WSW,251,6.0,6.0,43,0.00,,,0.00,Wunderground v.1.15,2013-03-20 04:10:00,
2013-03-20 00:28:00,41.5,19.5,30.15,WNW,302,9.0,13.0,41,0.00,,,0.00,Wunderground v.1.15,2013-03-20 04:28:00,
2013-03-20 00:31:00,41.5,19.5,30.16,WNW,286,9.0,11.0,41,0.00,,,0.00,Wunderground v.1.15,2013-03-20 04:31:00,
2013-03-20 00:36:00,41.3,19.3,30.15,WNW,283,9.0,13.0,41,0.00,,,0.00,Wunderground v.1.15,2013-03-20 04:36:00,
2013-03-20 00:39:00,41.7,19.7,30.15,NW,321,8.0,13.0,41,0.00,,,0.00,Wunderground v.1.15,2013-03-20 04:39:00,
2013-03-20 00:40:00,41.6,18.4,30.16,North,355,8.0,10.0,39,0.00,,,0.00,Wunderground v.1.15,2013-03-20 04:40:00,
2013-03-20 00:45:00,40.9,16.6,30.16,WNW,284,9.0,14.0,37,0.00,,,0.00,Wunderground v.1.15,2013-03-20 04:45:00,
2013-03-20 00:47:00,41.2,17.5,30.16,WNW,302,10.0,14.0,38,0.00,,,0.00,Wunderground v.1.15,2013-03-20 04:47:00,
2013-03-20 00:53:00,41.4,17.7,30.16,WNW,287,9.0,10.0,38,0.00,,,0.00,Wunderground v.1.15,2013-03-20 04:53:00,
2013-03-20 01:02:00,40.9,17.2,30.16,WNW,285,10.0,12.0,38,0.00,,,0.00,Wunderground v.1.15,2013-03-20 05:02:00,
2013-03-20 01:05:00,40.7,18.8,30.16,WNW,294,10.0,12.0,41,0.00,,,0.00,Wunderground v.1.15,2013-03-20 05:05:00,
2013-03-20 01:06:00,40.6,18.1,30.16,West,277,9.0,12.0,40,0.00,,,0.00,Wunderground v.1.15,2013-03-20 05:06:00,
2013-03-20 01:07:00,40.9,19.0,30.16,NW,305,9.0,15.0,41,0.00,,,0.00,Wunderground v.1.15,2013-03-20 05:07:00,
2013-03-20 01:08:00,40.8,18.3,30.16,NNW,328,9.0,15.0,40,0.00,,,0.00,Wunderground v.1.15,2013-03-20 05:08:00,
2013-03-20 01:12:00,35.9,18.1,30.22,WSW,250,1.0,2.0,48,0.00,,,0.00,Wunderground v.1.15,2013-03-20 05:12:00,
2013-03-20 01:15:00,40.8,18.3,30.16,WSW,253,9.0,14.0,40,0.00,,,0.00,Wunderground v.1.15,2013-03-20 05:15:00,
2013-03-20 01:21:00,35.6,18.3,30.22,WSW,250,1.0,2.0,49,0.00,,,0.00,Wunderground v.1.15,2013-03-20 05:21:00,
2013-03-20 01:26:00,35.5,18.7,30.21,WSW,250,1.0,2.0,50,0.00,,,0.00,Wunderground v.1.15,2013-03-20 05:26:00,
2013-03-20 01:31:00,35.3,18.5,30.21,WSW,250,2.0,2.0,50,0.00,,,0.00,Wunderground v.1.15,2013-03-20 05:31:00,
2013-03-20 01:33:00,35.3,18.5,30.21,WSW,250,1.0,2.0,50,0.00,,,0.00,Wunderground v.1.15,2013-03-20 05:33:00,
2013-03-20 01:35:00,40.6,19.8,30.16,WSW,240,9.0,12.0,43,0.00,,,0.00,Wunderground v.1.15,2013-03-20 05:35:00,
2013-03-20 01:38:00,35.2,18.4,30.21,WSW,250,1.0,2.0,50,0.00,,,0.00,Wunderground v.1.15,2013-03-20 05:38:00,
2013-03-20 01:39:00,35.2,18.4,30.21,WSW,250,1.0,2.0,50,0.00,,,0.00,Wunderground v.1.15,2013-03-20 05:39:00,
2013-03-20 01:40:00,40.5,19.7,30.15,WSW,256,8.0,8.0,43,0.00,,,0.00,Wunderground v.1.15,2013-03-20 05:40:00,
2013-03-20 01:42:00,35.1,18.8,30.21,WSW,250,1.0,2.0,51,0.00,,,0.00,Wunderground v.1.15,2013-03-20 05:42:00,
2013-03-20 01:44:00,40.4,19.1,30.15,WNW,291,8.0,11.0,42,0.00,,,0.00,Wunderground v.1.15,2013-03-20 05:44:00,
2013-03-20 01:45:00,40.1,18.8,30.15,WNW,296,8.0,11.0,42,0.00,,,0.00,Wunderground v.1.15,2013-03-20 05:45:00,
2013-03-20 01:46:00,35.1,18.8,30.21,WSW,250,1.0,2.0,51,0.00,,,0.00,Wunderground v.1.15,2013-03-20 05:46:00,
2013-03-20 01:47:00,39.7,20.1,30.15,WNW,299,8.0,11.0,45,0.00,,,0.00,Wunderground v.1.15,2013-03-20 05:47:00,
2013-03-20 01:49:00,39.5,19.9,30.15,WSW,240,8.0,11.0,45,0.00,,,0.00,Wunderground v.1.15,2013-03-20 05:49:00,
2013-03-20 01:51:00,35.2,18.9,30.21,WSW,250,1.0,2.0,51,0.00,,,0.00,Wunderground v.1.15,2013-03-20 05:51:00,
2013-03-20 01:52:00,40.0,20.9,30.15,West,279,8.0,10.0,46,0.00,,,0.00,Wunderground v.1.15,2013-03-20 05:52:00,
2013-03-20 01:53:00,35.1,18.8,30.21,WSW,250,2.0,2.0,51,0.00,,,0.00,Wunderground v.1.15,2013-03-20 05:53:00,
2013-03-20 01:55:00,40.2,21.0,30.15,NW,316,8.0,10.0,46,0.00,,,0.00,Wunderground v.1.15,2013-03-20 05:55:00,
2013-03-20 01:56:00,35.1,18.8,30.21,WSW,249,1.0,1.0,51,0.00,,,0.00,Wunderground v.1.15,2013-03-20 05:56:00,
2013-03-20 02:00:00,35.0,18.7,30.21,WSW,249,1.0,1.0,51,0.00,,,0.00,Wunderground v.1.15,2013-03-20 06:00:00,
2013-03-20 02:01:00,35.0,19.1,30.21,WSW,249,1.0,1.0,52,0.00,,,0.00,Wunderground v.1.15,2013-03-20 06:01:00,
2013-03-20 02:02:00,38.4,18.4,30.15,SW,234,8.0,12.0,44,0.00,,,0.00,Wunderground v.1.15,2013-03-20 06:02:00,
2013-03-20 02:03:00,38.2,18.2,30.15,WNW,288,8.0,12.0,44,0.00,,,0.00,Wunderground v.1.15,2013-03-20 06:03:00,
2013-03-20 02:04:00,37.9,18.4,30.15,NW,305,8.0,12.0,45,0.00,,,0.00,Wunderground v.1.15,2013-03-20 06:04:00,
2013-03-20 02:06:00,34.8,18.5,30.21,WSW,246,1.0,2.0,51,0.00,,,0.00,Wunderground v.1.15,2013-03-20 06:06:00,
2013-03-20 02:07:00,34.8,18.9,30.21,WSW,246,1.0,2.0,52,0.00,,,0.00,Wunderground v.1.15,2013-03-20 06:07:00,
2013-03-20 02:09:00,37.5,19.1,30.15,WNW,300,8.0,13.0,47,0.00,,,0.00,Wunderground v.1.15,2013-03-20 06:09:00,
2013-03-20 02:11:00,37.6,19.2,30.15,NW,313,8.0,9.0,47,0.00,,,0.00,Wunderground v.1.15,2013-03-20 06:11:00,
2013-03-20 02:12:00,34.7,18.9,30.21,WSW,246,1.0,2.0,52,0.00,,,0.00,Wunderground v.1.15,2013-03-20 06:12:00,
2013-03-20 02:13:00,37.6,19.2,30.15,NW,320,8.0,12.0,47,0.00,,,0.00,Wunderground v.1.15,2013-03-20 06:13:00,
2013-03-20 02:15:00,34.6,18.8,30.21,WSW,246,1.0,1.0,52,0.00,,,0.00,Wunderground v.1.15,2013-03-20 06:15:00,
2013-03-20 02:16:00,34.6,19.2,30.21,WSW,246,1.0,2.0,53,0.00,,,0.00,Wunderground v.1.15,2013-03-20 06:16:00,
2013-03-20 02:17:00,34.5,19.1,30.20,WSW,246,1.0,2.0,53,0.00,,,0.00,Wunderground v.1.15,2013-03-20 06:17:00,
2013-03-20 02:18:00,38.1,20.1,30.15,NW,305,7.0,12.0,48,0.00,,,0.00,Wunderground v.1.15,2013-03-20 06:18:00,
2013-03-20 02:20:00,38.0,20.0,30.15,WNW,286,7.0,7.0,48,0.00,,,0.00,Wunderground v.1.15,2013-03-20 06:20:00,
2013-03-20 02:21:00,37.9,19.9,30.15,West,275,7.0,8.0,48,0.00,,,0.00,Wunderground v.1.15,2013-03-20 06:21:00,
2013-03-20 02:22:00,34.5,19.1,30.20,WSW,246,1.0,3.0,53,0.00,,,0.00,Wunderground v.1.15,2013-03-20 06:22:00,
2013-03-20 02:23:00,37.6,20.1,30.15,NW,307,7.0,8.0,49,0.00,,,0.00,Wunderground v.1.15,2013-03-20 06:23:00,
2013-03-20 02:24:00,34.4,19.0,30.20,WSW,246,1.0,3.0,53,0.00,,,0.00,Wunderground v.1.15,2013-03-20 06:24:00,
2013-03-20 02:27:00,34.4,19.0,30.20,WSW,246,1.0,2.0,53,0.00,,,0.00,Wunderground v.1.15,2013-03-20 06:27:00,
2013-03-20 02:29:00,37.4,19.5,30.15,West,264,7.0,10.0,48,0.00,,,0.00,Wunderground v.1.15,2013-03-20 06:29:00,
2013-03-20 02:31:00,37.3,19.4,30.15,WSW,247,7.0,12.0,48,0.00,,,0.00,Wunderground v.1.15,2013-03-20 06:31:00,
2013-03-20 02:34:00,37.3,19.9,30.15,NW,304,7.0,12.0,49,0.00,,,0.00,Wunderground v.1.15,2013-03-20 06:34:00,
2013-03-20 02:35:00,37.4,19.5,30.14,WSW,257,7.0,12.0,48,0.00,,,0.00,Wunderground v.1.15,2013-03-20 06:35:00,
2013-03-20 02:40:00,37.3,18.9,30.14,West,261,8.0,8.0,47,0.00,,,0.00,Wunderground v.1.15,2013-03-20 06:40:00,
2013-03-20 02:42:00,34.2,19.3,30.20,WSW,238,1.0,3.0,54,0.00,,,0.00,Wunderground v.1.15,2013-03-20 06:42:00,
2013-03-20 02:46:00,37.6,19.7,30.14,NW,325,6.0,9.0,48,0.00,,,0.00,Wunderground v.1.15,2013-03-20 06:46:00,
2013-03-20 02:49:00,38.0,19.5,30.14,WNW,283,6.0,9.0,47,0.00,,,0.00,Wunderground v.1.15,2013-03-20 06:49:00,
2013-03-20 02:50:00,38.2,19.7,30.14,WSW,256,6.0,9.0,47,0.00,,,0.00,Wunderground v.1.15,2013-03-20 06:50:00,
2013-03-20 02:51:00,38.4,18.9,30.14,NW,324,6.0,10.0,45,0.00,,,0.00,Wunderground v.1.15,2013-03-20 06:51:00,
2013-03-20 02:53:00,38.7,19.2,30.14,WNW,288,7.0,10.0,45,0.00,,,0.00,Wunderground v.1.15,2013-03-20 06:53:00,
2013-03-20 02:55:00,33.8,19.3,30.20,WSW,238,0.0,0.0,55,0.00,,,0.00,Wunderground v.1.15,2013-03-20 06:55:00,
2013-03-20 03:03:00,33.6,19.6,30.20,WSW,238,0.0,0.0,56,0.00,,,0.00,Wunderground v.1.15,2013-03-20 07:03:00,
2013-03-20 03:08:00,33.5,19.5,30.20,WSW,238,0.0,1.0,56,0.00,,,0.00,Wunderground v.1.15,2013-03-20 07:08:00,
2013-03-20 03:10:00,39.5,20.9,30.13,SW,234,8.0,10.0,47,0.00,,,0.00,Wunderground v.1.15,2013-03-20 07:10:00,
2013-03-20 03:12:00,39.8,19.6,30.12,WNW,302,7.0,10.0,44,0.00,,,0.00,Wunderground v.1.15,2013-03-20 07:12:00,
2013-03-20 03:14:00,40.0,20.3,30.13,NNW,328,7.0,10.0,45,0.00,,,0.00,Wunderground v.1.15,2013-03-20 07:14:00,
2013-03-20 03:16:00,39.2,18.5,30.13,WSW,247,7.0,11.0,43,0.00,,,0.00,Wunderground v.1.15,2013-03-20 07:16:00,
2013-03-20 03:18:00,38.8,18.2,30.12,WNW,300,8.0,11.0,43,0.00,,,0.00,Wunderground v.1.15,2013-03-20 07:18:00,
2013-03-20 03:22:00,38.5,19.0,30.12,West,265,8.0,9.0,45,0.00,,,0.00,Wunderground v.1.15,2013-03-20 07:22:00,
2013-03-20 03:23:00,33.3,19.7,30.20,WSW,238,0.0,1.0,57,0.00,,,0.00,Wunderground v.1.15,2013-03-20 07:23:00,
2013-03-20 03:27:00,38.5,18.4,30.12,SSW,213,8.0,11.0,44,0.00,,,0.00,Wunderground v.1.15,2013-03-20 07:27:00,
2013-03-20 03:28:00,33.0,19.4,30.20,WSW,238,0.0,0.0,57,0.00,,,0.00,Wunderground v.1.15,2013-03-20 07:28:00,
2013-03-20 03:33:00,32.6,19.4,30.20,WSW,238,0.0,0.0,58,0.00,,,0.00,Wunderground v.1.15,2013-03-20 07:33:00,
2013-03-20 03:36:00,32.6,19.4,30.20,WSW,238,0.0,0.0,58,0.00,,,0.00,Wunderground v.1.15,2013-03-20 07:36:00,
2013-03-20 03:40:00,32.6,19.8,30.19,WSW,238,0.0,0.0,59,0.00,,,0.00,Wunderground v.1.15,2013-03-20 07:40:00,
2013-03-20 03:42:00,32.6,19.4,30.19,WSW,238,0.0,2.0,58,0.00,,,0.00,Wunderground v.1.15,2013-03-20 07:42:00,
2013-03-20 03:46:00,38.9,20.9,30.11,WSW,242,6.0,9.0,48,0.00,,,0.00,Wunderground v.1.15,2013-03-20 07:46:00,
2013-03-20 03:48:00,32.9,19.7,30.19,WSW,238,1.0,2.0,58,0.00,,,0.00,Wunderground v.1.15,2013-03-20 07:48:00,
2013-03-20 03:50:00,32.9,19.7,30.19,WSW,238,1.0,2.0,58,0.00,,,0.00,Wunderground v.1.15,2013-03-20 07:50:00,
2013-03-20 03:53:00,32.9,19.7,30.19,WSW,238,2.0,3.0,58,0.00,,,0.00,Wunderground v.1.15,2013-03-20 07:53:00,
2013-03-20 03:56:00,38.2,19.7,30.11,NW,323,7.0,11.0,47,0.00,,,0.00,Wunderground v.1.15,2013-03-20 07:56:00,
2013-03-20 03:59:00,32.8,19.6,30.19,WSW,238,2.0,3.0,58,0.00,,,0.00,Wunderground v.1.15,2013-03-20 07:59:00,
2013-03-20 04:01:00,32.8,19.6,30.19,WSW,238,2.0,3.0,58,0.00,,,0.00,Wunderground v.1.15,2013-03-20 08:01:00,
2013-03-20 04:04:00,32.8,19.6,30.18,WSW,238,2.0,3.0,58,0.00,,,0.00,Wunderground v.1.15,2013-03-20 08:04:00,
2013-03-20 04:09:00,39.1,16.8,30.10,WSW,252,9.0,10.0,40,0.00,,,0.00,Wunderground v.1.15,2013-03-20 08:09:00,
2013-03-20 04:10:00,38.9,17.2,30.10,WSW,244,9.0,9.0,41,0.00,,,0.00,Wunderground v.1.15,2013-03-20 08:10:00,
2013-03-20 04:13:00,33.2,20.0,30.18,WSW,238,1.0,2.0,58,0.00,,,0.00,Wunderground v.1.15,2013-03-20 08:13:00,
2013-03-20 04:17:00,33.2,19.6,30.18,WSW,238,1.0,1.0,57,0.00,,,0.00,Wunderground v.1.15,2013-03-20 08:17:00,
2013-03-20 04:21:00,33.2,19.6,30.18,WSW,238,1.0,3.0,57,0.00,,,0.00,Wunderground v.1.15,2013-03-20 08:21:00,
2013-03-20 04:24:00,37.7,16.6,30.10,NW,324,8.0,15.0,42,0.00,,,0.00,Wunderground v.1.15,2013-03-20 08:24:00,
2013-03-20 04:30:00,38.0,16.9,30.10,NW,313,9.0,10.0,42,0.00,,,0.00,Wunderground v.1.15,2013-03-20 08:30:00,
2013-03-20 04:31:00,38.2,17.1,30.10,WSW,243,9.0,10.0,42,0.00,,,0.00,Wunderground v.1.15,2013-03-20 08:31:00,
2013-03-20 04:35:00,38.7,16.4,30.10,West,269,8.0,11.0,40,0.00,,,0.00,Wunderground v.1.15,2013-03-20 08:35:00,
2013-03-20 04:37:00,32.6,19.4,30.17,WSW,238,1.0,1.0,58,0.00,,,0.00,Wunderground v.1.15,2013-03-20 08:37:00,
2013-03-20 04:40:00,37.4,15.8,30.10,WNW,288,8.0,14.0,41,0.00,,,0.00,Wunderground v.1.15,2013-03-20 08:40:00,
2013-03-20 04:41:00,37.2,15.1,30.10,NW,306,8.0,14.0,40,0.00,,,0.00,Wunderground v.1.15,2013-03-20 08:41:00,
2013-03-20 04:43:00,32.5,19.7,30.17,WSW,252,1.0,3.0,59,0.00,,,0.00,Wunderground v.1.15,2013-03-20 08:43:00,
2013-03-20 04:44:00,32.5,19.7,30.17,WSW,252,1.0,3.0,59,0.00,,,0.00,Wunderground v.1.15,2013-03-20 08:44:00,
2013-03-20 04:45:00,37.5,16.5,30.10,WNW,303,8.0,14.0,42,0.00,,,0.00,Wunderground v.1.15,2013-03-20 08:45:00,
2013-03-20 04:50:00,32.3,19.6,30.17,WSW,252,1.0,2.0,59,0.00,,,0.00,Wunderground v.1.15,2013-03-20 08:50:00,
2013-03-20 04:52:00,32.2,19.5,30.17,WSW,242,2.0,3.0,59,0.00,,,0.00,Wunderground v.1.15,2013-03-20 08:52:00,
2013-03-20 04:54:00,36.7,17.8,30.11,NNW,327,8.0,12.0,46,0.00,,,0.00,Wunderground v.1.15,2013-03-20 08:54:00,
2013-03-20 04:57:00,32.1,19.8,30.17,WSW,242,2.0,2.0,60,0.00,,,0.00,Wunderground v.1.15,2013-03-20 08:57:00,
2013-03-20 05:02:00,32.1,19.8,30.17,SW,236,2.0,3.0,60,0.00,,,0.00,Wunderground v.1.15,2013-03-20 09:02:00,
2013-03-20 05:03:00,37.6,17.1,30.11,WNW,295,8.0,13.0,43,0.00,,,0.00,Wunderground v.1.15,2013-03-20 09:03:00,
2013-03-20 05:07:00,32.0,19.7,30.16,SW,236,2.0,3.0,60,0.00,,,0.00,Wunderground v.1.15,2013-03-20 09:07:00,
2013-03-20 05:08:00,32.0,19.7,30.16,SW,236,2.0,3.0,60,0.00,,,0.00,Wunderground v.1.15,2013-03-20 09:08:00,
2013-03-20 05:10:00,32.0,19.7,30.16,SW,236,2.0,3.0,60,0.00,,,0.00,Wunderground v.1.15,2013-03-20 09:10:00,
2013-03-20 05:13:00,32.0,19.7,30.16,WSW,238,2.0,3.0,60,0.00,,,0.00,Wunderground v.1.15,2013-03-20 09:13:00,
2013-03-20 05:17:00,36.8,15.3,30.11,West,277,7.0,16.0,41,0.00,,,0.00,Wunderground v.1.15,2013-03-20 09:17:00,
2013-03-20 05:19:00,32.0,19.7,30.16,SW,223,2.0,3.0,60,0.00,,,0.00,Wunderground v.1.15,2013-03-20 09:19:00,
2013-03-20 05:20:00,36.2,14.7,30.12,West,276,8.0,8.0,41,0.00,,,0.00,Wunderground v.1.15,2013-03-20 09:20:00,
2013-03-20 05:28:00,35.5,15.2,30.12,NW,319,8.0,12.0,43,0.00,,,0.00,Wunderground v.1.15,2013-03-20 09:28:00,
2013-03-20 05:32:00,31.7,19.8,30.15,SSW,209,2.0,2.0,61,0.00,,,0.00,Wunderground v.1.15,2013-03-20 09:32:00,
2013-03-20 05:35:00,34.6,14.9,30.12,WNW,299,8.0,9.0,44,0.00,,,0.00,Wunderground v.1.15,2013-03-20 09:35:00,
2013-03-20 05:36:00,34.5,14.8,30.12,NW,305,8.0,13.0,44,0.00,,,0.00,Wunderground v.1.15,2013-03-20 09:36:00,
2013-03-20 05:37:00,31.6,19.7,30.15,SSW,211,2.0,2.0,61,0.00,,,0.00,Wunderground v.1.15,2013-03-20 09:37:00,
2013-03-20 05:39:00,34.6,15.4,30.12,WNW,290,9.0,13.0,45,0.00,,,0.00,Wunderground v.1.15,2013-03-20 09:39:00,
2013-03-20 05:42:00,31.5,19.6,30.16,SSW,211,2.0,3.0,61,0.00,,,0.00,Wunderground v.1.15,2013-03-20 09:42:00,
2013-03-20 05:43:00,34.2,15.5,30.12,WNW,296,9.0,14.0,46,0.00,,,0.00,Wunderground v.1.15,2013-03-20 09:43:00,
2013-03-20 05:45:00,31.6,19.7,30.15,SSW,211,2.0,2.0,61,0.00,,,0.00,Wunderground v.1.15,2013-03-20 09:45:00,
2013-03-20 05:46:00,34.1,16.4,30.12,NW,319,9.0,14.0,48,0.00,,,0.00,Wunderground v.1.15,2013-03-20 09:46:00,
2013-03-20 05:48:00,34.0,15.9,30.12,NW,314,9.0,17.0,47,0.00,,,0.00,Wunderground v.1.15,2013-03-20 09:48:00,
2013-03-20 05:51:00,31.6,19.7,30.15,SW,221,2.0,3.0,61,0.00,,,0.00,Wunderground v.1.15,2013-03-20 09:51:00,
2013-03-20 05:53:00,31.6,19.7,30.15,SW,221,2.0,3.0,61,0.00,,,0.00,Wunderground v.1.15,2013-03-20 09:53:00,
2013-03-20 05:57:00,31.4,19.5,30.16,SSW,212,2.0,3.0,61,0.00,,,0.00,Wunderground v.1.15,2013-03-20 09:57:00,
2013-03-20 05:59:00,34.4,16.2,30.12,West,274,7.0,10.0,47,0.00,,,0.00,Wunderground v.1.15,2013-03-20 09:59:00,
2013-03-20 06:01:00,34.4,15.7,30.12,NNW,327,7.0,8.0,46,0.00,,,0.00,Wunderground v.1.15,2013-03-20 10:01:00,
2013-03-20 06:02:00,34.4,15.7,30.12,WNW,301,7.0,8.0,46,0.00,,,0.00,Wunderground v.1.15,2013-03-20 10:02:00,
2013-03-20 06:03:00,34.3,15.6,30.12,WSW,244,8.0,8.0,46,0.00,,,0.00,Wunderground v.1.15,2013-03-20 10:03:00,
2013-03-20 06:04:00,34.4,16.2,30.12,West,279,8.0,13.0,47,0.00,,,0.00,Wunderground v.1.15,2013-03-20 10:04:00,
2013-03-20 06:06:00,31.5,20.0,30.15,SSW,205,3.0,3.0,62,0.00,,,0.00,Wunderground v.1.15,2013-03-20 10:06:00,
2013-03-20 06:08:00,34.2,16.0,30.12,NNW,347,8.0,13.0,47,0.00,,,0.00,Wunderground v.1.15,2013-03-20 10:08:00,
2013-03-20 06:09:00,34.3,16.6,30.13,NNW,345,8.0,13.0,48,0.00,,,0.00,Wunderground v.1.15,2013-03-20 10:09:00,
2013-03-20 06:10:00,34.6,16.9,30.12,WNW,302,8.0,10.0,48,0.00,,,0.00,Wunderground v.1.15,2013-03-20 10:10:00,
2013-03-20 06:13:00,34.6,15.4,30.13,WNW,292,8.0,11.0,45,0.00,,,0.00,Wunderground v.1.15,2013-03-20 10:13:00,
2013-03-20 06:14:00,34.4,15.2,30.13,West,279,8.0,11.0,45,0.00,,,0.00,Wunderground v.1.15,2013-03-20 10:14:00,
2013-03-20 06:20:00,31.5,20.0,30.15,SSW,212,2.0,3.0,62,0.00,,,0.00,Wunderground v.1.15,2013-03-20 10:20:00,
2013-03-20 06:22:00,33.6,15.0,30.13,NW,318,8.0,10.0,46,0.00,,,0.00,Wunderground v.1.15,2013-03-20 10:22:00,
2013-03-20 06:24:00,33.7,15.6,30.13,NNW,333,8.0,11.0,47,0.00,,,0.00,Wunderground v.1.15,2013-03-20 10:24:00,
2013-03-20 06:29:00,31.4,20.2,30.15,SSW,209,3.0,3.0,63,0.00,,,0.00,Wunderground v.1.15,2013-03-20 10:29:00,
2013-03-20 06:31:00,33.2,14.1,30.13,WSW,253,8.0,11.0,45,0.00,,,0.00,Wunderground v.1.15,2013-03-20 10:31:00,
2013-03-20 06:33:00,33.0,13.9,30.13,NW,309,8.0,11.0,45,0.00,,,0.00,Wunderground v.1.15,2013-03-20 10:33:00,
2013-03-20 06:37:00,32.9,14.4,30.13,WNW,286,8.0,15.0,46,0.00,,,0.00,Wunderground v.1.15,2013-03-20 10:37:00,
2013-03-20 06:38:00,31.2,20.1,30.16,SSW,209,2.0,2.0,63,0.00,,,0.00,Wunderground v.1.15,2013-03-20 10:38:00,
2013-03-20 06:42:00,32.9,14.8,30.13,NW,319,7.0,8.0,47,0.00,,,0.00,Wunderground v.1.15,2013-03-20 10:42:00,
2013-03-20 06:43:00,32.9,14.4,30.13,NNW,329,7.0,14.0,46,0.00,,,0.00,Wunderground v.1.15,2013-03-20 10:43:00,
2013-03-20 06:44:00,32.9,14.4,30.13,NW,324,7.0,14.0,46,0.00,,,0.00,Wunderground v.1.15,2013-03-20 10:44:00,
2013-03-20 06:45:00,31.0,20.2,30.16,SW,214,1.0,2.0,64,0.00,,,0.00,Wunderground v.1.15,2013-03-20 10:45:00,
2013-03-20 06:48:00,32.8,14.3,30.13,West,260,6.0,14.0,46,0.00,,,0.00,Wunderground v.1.15,2013-03-20 10:48:00,
2013-03-20 06:52:00,32.5,14.5,30.13,WNW,294,7.0,9.0,47,0.00,,,0.00,Wunderground v.1.15,2013-03-20 10:52:00,
2013-03-20 06:53:00,32.5,15.0,30.13,WNW,283,6.0,9.0,48,0.00,,,0.00,Wunderground v.1.15,2013-03-20 10:53:00,
2013-03-20 06:54:00,30.9,20.1,30.17,SW,214,2.0,3.0,64,0.00,,,0.00,Wunderground v.1.15,2013-03-20 10:54:00,
2013-03-20 06:56:00,30.8,20.0,30.17,SW,215,2.0,2.0,64,0.00,,,0.00,Wunderground v.1.15,2013-03-20 10:56:00,
2013-03-20 06:57:00,32.4,14.4,30.13,WNW,284,6.0,10.0,47,0.00,,,0.00,Wunderground v.1.15,2013-03-20 10:57:00,
2013-03-20 06:58:00,32.4,15.3,30.13,NW,321,6.0,10.0,49,0.00,,,0.00,Wunderground v.1.15,2013-03-20 10:58:00,
2013-03-20 06:59:00,30.8,20.4,30.17,SW,216,2.0,5.0,65,0.00,,,0.00,Wunderground v.1.15,2013-03-20 10:59:00,
2013-03-20 07:01:00,30.8,20.4,30.17,SW,215,2.0,5.0,65,0.00,,,0.00,Wunderground v.1.15,2013-03-20 11:01:00,
2013-03-20 07:02:00,30.8,20.4,30.17,SSW,208,2.0,5.0,65,0.00,,,0.00,Wunderground v.1.15,2013-03-20 11:02:00,
2013-03-20 07:05:00,30.8,20.4,30.17,SSW,202,2.0,5.0,65,0.00,,,0.00,Wunderground v.1.15,2013-03-20 11:05:00,
2013-03-20 07:06:00,32.0,14.0,30.13,WNW,303,7.0,9.0,47,0.00,,,0.00,Wunderground v.1.15,2013-03-20 11:06:00,
2013-03-20 07:07:00,31.9,13.9,30.13,North,360,7.0,9.0,47,0.00,,,0.00,Wunderground v.1.15,2013-03-20 11:07:00,
2013-03-20 07:08:00,32.0,15.0,30.13,West,270,7.0,9.0,49,0.00,,,0.00,Wunderground v.1.15,2013-03-20 11:08:00,
2013-03-20 07:09:00,30.6,20.2,30.17,SSW,208,3.0,3.0,65,0.00,,,0.00,Wunderground v.1.15,2013-03-20 11:09:00,
2013-03-20 07:10:00,30.6,20.2,30.17,SSW,208,3.0,3.0,65,0.00,,,0.00,Wunderground v.1.15,2013-03-20 11:10:00,
2013-03-20 07:12:00,30.6,20.2,30.17,SSW,200,3.0,3.0,65,0.00,,,0.00,Wunderground v.1.15,2013-03-20 11:12:00,
2013-03-20 07:15:00,31.7,12.8,30.13,West,277,7.0,12.0,45,0.00,,,0.00,Wunderground v.1.15,2013-03-20 11:15:00,
2013-03-20 07:17:00,31.5,13.1,30.13,West,269,8.0,12.0,46,0.00,,,0.00,Wunderground v.1.15,2013-03-20 11:17:00,
2013-03-20 07:18:00,30.5,20.1,30.17,SSW,208,3.0,4.0,65,0.00,,,0.00,Wunderground v.1.15,2013-03-20 11:18:00,
2013-03-20 07:19:00,31.4,13.5,30.13,WNW,290,8.0,12.0,47,0.00,,,0.00,Wunderground v.1.15,2013-03-20 11:19:00,
2013-03-20 07:20:00,30.5,20.1,30.17,SSW,209,3.0,4.0,65,0.00,,,0.00,Wunderground v.1.15,2013-03-20 11:20:00,
2013-03-20 07:24:00,30.5,20.1,30.17,SSW,207,3.0,4.0,65,0.00,,,0.00,Wunderground v.1.15,2013-03-20 11:24:00,
2013-03-20 07:25:00,30.5,20.1,30.17,SSW,200,3.0,3.0,65,0.00,,,0.00,Wunderground v.1.15,2013-03-20 11:25:00,
2013-03-20 07:26:00,30.5,20.1,30.17,SSW,204,3.0,3.0,65,0.00,,,0.00,Wunderground v.1.15,2013-03-20 11:26:00,
2013-03-20 07:29:00,30.5,20.1,30.17,SSW,207,3.0,3.0,65,0.00,,,0.00,Wunderground v.1.15,2013-03-20 11:29:00,
2013-03-20 07:30:00,30.8,12.9,30.13,WNW,286,7.0,10.0,47,0.00,,,0.00,Wunderground v.1.15,2013-03-20 11:30:00,
2013-03-20 07:32:00,30.3,20.3,30.17,SSW,207,2.0,3.0,66,0.00,,,0.00,Wunderground v.1.15,2013-03-20 11:32:00,
2013-03-20 07:34:00,30.8,12.9,30.14,WNW,300,8.0,12.0,47,0.00,,,0.00,Wunderground v.1.15,2013-03-20 11:34:00,
2013-03-20 07:35:00,30.7,12.3,30.13,WSW,240,8.0,12.0,46,0.00,,,0.00,Wunderground v.1.15,2013-03-20 11:35:00,
2013-03-20 07:36:00,30.7,12.3,30.13,West,276,8.0,12.0,46,0.00,,,0.00,Wunderground v.1.15,2013-03-20 11:36:00,
2013-03-20 07:37:00,30.7,12.8,30.14,West,279,8.0,12.0,47,0.00,,,0.00,Wunderground v.1.15,2013-03-20 11:37:00,
2013-03-20 07:38:00,30.3,20.3,30.17,SSW,205,2.0,2.0,66,0.00,,,0.00,Wunderground v.1.15,2013-03-20 11:38:00,
2013-03-20 07:39:00,30.3,20.3,30.17,SW,220,2.0,2.0,66,0.00,,,0.00,Wunderground v.1.15,2013-03-20 11:39:00,
2013-03-20 07:42:00,30.3,20.3,30.17,South,188,2.0,4.0,66,0.00,,,0.00,Wunderground v.1.15,2013-03-20 11:42:00,
2013-03-20 07:43:00,30.5,12.6,30.13,West,276,8.0,9.0,47,0.00,,,0.00,Wunderground v.1.15,2013-03-20 11:43:00,
2013-03-20 07:44:00,30.5,12.6,30.14,West,279,7.0,9.0,47,0.00,,,0.00,Wunderground v.1.15,2013-03-20 11:44:00,
2013-03-20 07:47:00,30.3,20.3,30.17,SW,216,2.0,2.0,66,0.00,,,0.00,Wunderground v.1.15,2013-03-20 11:47:00,
2013-03-20 07:49:00,30.3,20.3,30.18,SW,216,2.0,2.0,66,0.00,,,0.00,Wunderground v.1.15,2013-03-20 11:49:00,
2013-03-20 07:52:00,30.3,20.3,30.18,WSW,258,2.0,3.0,66,0.00,,,0.00,Wunderground v.1.15,2013-03-20 11:52:00,
2013-03-20 07:53:00,30.4,13.0,30.14,West,267,6.0,8.0,48,0.00,,,0.00,Wunderground v.1.15,2013-03-20 11:53:00,
2013-03-20 07:54:00,30.3,20.3,30.18,WSW,258,2.0,3.0,66,0.00,,,0.00,Wunderground v.1.15,2013-03-20 11:54:00,
2013-03-20 07:55:00,30.3,13.4,30.14,NW,316,6.0,8.0,49,0.00,,,0.00,Wunderground v.1.15,2013-03-20 11:55:00,
2013-03-20 07:56:00,30.3,20.3,30.18,WSW,253,2.0,3.0,66,0.00,,,0.00,Wunderground v.1.15,2013-03-20 11:56:00,
2013-03-20 08:01:00,30.3,20.6,30.18,SW,224,2.0,3.0,67,0.00,,,0.00,Wunderground v.1.15,2013-03-20 12:01:00,
2013-03-20 08:02:00,30.3,20.6,30.18,SSW,207,2.0,3.0,67,0.00,,,0.00,Wunderground v.1.15,2013-03-20 12:02:00,
2013-03-20 08:05:00,29.8,14.3,30.14,NW,317,8.0,12.0,52,0.00,,,0.00,Wunderground v.1.15,2013-03-20 12:05:00,
2013-03-20 08:06:00,29.8,14.3,30.14,NNW,334,8.0,12.0,52,0.00,,,0.00,Wunderground v.1.15,2013-03-20 12:06:00,
2013-03-20 08:07:00,29.7,14.2,30.14,NW,320,8.0,12.0,52,0.00,,,0.00,Wunderground v.1.15,2013-03-20 12:07:00,
2013-03-20 08:08:00,30.2,20.6,30.18,SSW,207,2.0,3.0,67,0.00,,,0.00,Wunderground v.1.15,2013-03-20 12:08:00,
2013-03-20 08:11:00,29.5,14.5,30.14,NNW,331,8.0,8.0,53,0.00,,,0.00,Wunderground v.1.15,2013-03-20 12:11:00,
2013-03-20 08:12:00,29.4,14.4,30.14,WNW,284,8.0,9.0,53,0.00,,,0.00,Wunderground v.1.15,2013-03-20 12:12:00,
2013-03-20 08:13:00,29.4,14.4,30.14,NW,317,8.0,9.0,53,0.00,,,0.00,Wunderground v.1.15,2013-03-20 12:13:00,
2013-03-20 08:14:00,30.3,20.6,30.18,SSW,211,3.0,4.0,67,0.00,,,0.00,Wunderground v.1.15,2013-03-20 12:14:00,
2013-03-20 08:15:00,30.3,20.6,30.18,SSW,209,3.0,4.0,67,0.00,,,0.00,Wunderground v.1.15,2013-03-20 12:15:00,
2013-03-20 08:16:00,29.3,14.3,30.14,NW,309,7.0,12.0,53,0.00,,,0.00,Wunderground v.1.15,2013-03-20 12:16:00,
2013-03-20 08:17:00,29.2,14.2,30.14,NW,323,7.0,13.0,53,0.00,,,0.00,Wunderground v.1.15,2013-03-20 12:17:00,
2013-03-20 08:20:00,30.4,20.7,30.18,SSW,200,3.0,4.0,67,0.00,,,0.00,Wunderground v.1.15,2013-03-20 12:20:00,
2013-03-20 08:22:00,29.1,14.9,30.14,NW,312,7.0,8.0,55,0.00,,,0.00,Wunderground v.1.15,2013-03-20 12:22:00,
2013-03-20 08:23:00,29.1,14.9,30.14,NW,315,7.0,8.0,55,0.00,,,0.00,Wunderground v.1.15,2013-03-20 12:23:00,
2013-03-20 08:24:00,30.5,20.8,30.18,SSW,200,3.0,4.0,67,0.00,,,0.00,Wunderground v.1.15,2013-03-20 12:24:00,
2013-03-20 08:27:00,29.0,14.8,30.15,WNW,302,6.0,8.0,55,0.00,,,0.00,Wunderground v.1.15,2013-03-20 12:27:00,
2013-03-20 08:29:00,30.7,21.0,30.18,SSW,207,3.0,3.0,67,0.00,,,0.00,Wunderground v.1.15,2013-03-20 12:29:00,
2013-03-20 08:30:00,28.8,14.2,30.14,WNW,288,6.0,6.0,54,0.00,,,0.00,Wunderground v.1.15,2013-03-20 12:30:00,
2013-03-20 08:31:00,28.8,14.6,30.15,West,277,6.0,6.0,55,0.00,,,0.00,Wunderground v.1.15,2013-03-20 12:31:00,
2013-03-20 08:32:00,30.7,21.0,30.18,SSW,212,2.0,3.0,67,0.00,,,0.00,Wunderground v.1.15,2013-03-20 12:32:00,
2013-03-20 08:34:00,30.8,21.1,30.18,SW,230,2.0,3.0,67,0.00,,,0.00,Wunderground v.1.15,2013-03-20 12:34:00,
2013-03-20 08:35:00,28.6,14.9,30.15,WNW,292,6.0,7.0,56,0.00,,,0.00,Wunderground v.1.15,2013-03-20 12:35:00,
2013-03-20 08:37:00,28.5,14.8,30.14,NW,313,5.0,7.0,56,0.00,,,0.00,Wunderground v.1.15,2013-03-20 12:37:00,
2013-03-20 08:39:00,28.4,13.9,30.15,NW,312,5.0,8.0,54,0.00,,,0.00,Wunderground v.1.15,2013-03-20 12:39:00,
2013-03-20 08:40:00,30.9,20.9,30.18,SW,234,2.0,2.0,66,0.00,,,0.00,Wunderground v.1.15,2013-03-20 12:40:00,
2013-03-20 08:41:00,28.4,13.9,30.15,NW,310,5.0,5.0,54,0.00,,,0.00,Wunderground v.1.15,2013-03-20 12:41:00,
2013-03-20 08:42:00,28.3,13.8,30.15,WNW,286,5.0,7.0,54,0.00,,,0.00,Wunderground v.1.15,2013-03-20 12:42:00,
2013-03-20 08:45:00,28.3,14.2,30.15,WNW,284,5.0,7.0,55,0.00,,,0.00,Wunderground v.1.15,2013-03-20 12:45:00,
2013-03-20 08:46:00,31.3,21.3,30.17,SW,219,2.0,2.0,66,0.00,,,0.00,Wunderground v.1.15,2013-03-20 12:46:00,
2013-03-20 08:47:00,31.4,21.3,30.17,SW,218,3.0,3.0,66,0.00,,,0.00,Wunderground v.1.15,2013-03-20 12:47:00,
2013-03-20 08:48:00,28.3,13.8,30.15,WNW,296,5.0,8.0,54,0.00,,,0.00,Wunderground v.1.15,2013-03-20 12:48:00,
2013-03-20 08:49:00,28.3,13.8,30.14,WNW,294,5.0,10.0,54,0.00,,,0.00,Wunderground v.1.15,2013-03-20 12:49:00,
2013-03-20 08:50:00,28.3,13.8,30.14,NW,323,5.0,6.0,54,0.00,,,0.00,Wunderground v.1.15,2013-03-20 12:50:00,
2013-03-20 08:51:00,28.3,13.3,30.15,West,269,6.0,9.0,53,0.00,,,0.00,Wunderground v.1.15,2013-03-20 12:51:00,
2013-03-20 08:52:00,28.3,13.3,30.14,NNW,330,6.0,9.0,53,0.00,,,0.00,Wunderground v.1.15,2013-03-20 12:52:00,
2013-03-20 08:53:00,28.4,13.4,30.14,WNW,294,6.0,9.0,53,0.00,,,0.00,Wunderground v.1.15,2013-03-20 12:53:00,
2013-03-20 08:54:00,28.4,13.9,30.14,NW,307,6.0,9.0,54,0.00,,,0.00,Wunderground v.1.15,2013-03-20 12:54:00,
2013-03-20 08:55:00,31.9,21.8,30.18,WSW,243,2.0,2.0,66,0.00,,,0.00,Wunderground v.1.15,2013-03-20 12:55:00,
2013-03-20 08:56:00,28.4,13.4,30.14,NW,322,6.0,9.0,53,0.00,,,0.00,Wunderground v.1.15,2013-03-20 12:56:00,
2013-03-20 08:58:00,28.4,13.0,30.14,NW,320,6.0,9.0,52,0.00,,,0.00,Wunderground v.1.15,2013-03-20 12:58:00,
2013-03-20 08:59:00,32.0,21.9,30.18,WSW,257,2.0,2.0,66,0.00,,,0.00,Wunderground v.1.15,2013-03-20 12:59:00,
2013-03-20 09:01:00,32.3,21.8,30.18,WSW,243,2.0,3.0,65,0.00,,,0.00,Wunderground v.1.15,2013-03-20 13:01:00,
2013-03-20 09:02:00,28.4,12.6,30.14,NW,313,6.0,8.0,51,0.00,,,0.00,Wunderground v.1.15,2013-03-20 13:02:00,
2013-03-20 09:03:00,28.4,12.6,30.14,West,261,6.0,8.0,51,0.00,,,0.00,Wunderground v.1.15,2013-03-20 13:03:00,
2013-03-20 09:05:00,28.5,13.1,30.15,West,274,7.0,8.0,52,0.00,,,0.00,Wunderground v.1.15,2013-03-20 13:05:00,
2013-03-20 09:06:00,28.5,12.6,30.15,West,276,7.0,8.0,51,0.00,,,0.00,Wunderground v.1.15,2013-03-20 13:06:00,
2013-03-20 09:07:00,32.7,22.2,30.18,WSW,245,3.0,3.0,65,0.00,,,0.00,Wunderground v.1.15,2013-03-20 13:07:00,
2013-03-20 09:09:00,33.0,22.5,30.18,SW,232,3.0,4.0,65,0.00,,,0.00,Wunderground v.1.15,2013-03-20 13:09:00,
2013-03-20 09:14:00,33.5,22.2,30.18,WSW,256,3.0,6.0,63,0.00,,,0.00,Wunderground v.1.15,2013-03-20 13:14:00,
2013-03-20 09:15:00,33.6,22.3,30.18,WSW,258,3.0,3.0,63,0.00,,,0.00,Wunderground v.1.15,2013-03-20 13:15:00,
2013-03-20 09:20:00,34.2,22.1,30.18,WSW,249,4.0,6.0,61,0.00,,,0.00,Wunderground v.1.15,2013-03-20 13:20:00,
2013-03-20 09:21:00,28.4,12.6,30.14,WNW,296,5.0,6.0,51,0.00,,,0.00,Wunderground v.1.15,2013-03-20 13:21:00,
2013-03-20 09:22:00,28.4,12.6,30.14,NW,323,5.0,6.0,51,0.00,,,0.00,Wunderground v.1.15,2013-03-20 13:22:00,
2013-03-20 09:25:00,34.8,21.9,30.18,WSW,244,4.0,4.0,59,0.00,,,0.00,Wunderground v.1.15,2013-03-20 13:25:00,
2013-03-20 09:27:00,34.9,22.8,30.17,WSW,257,4.0,4.0,61,0.00,,,0.00,Wunderground v.1.15,2013-03-20 13:27:00,
2013-03-20 09:29:00,35.2,22.3,30.18,WSW,254,3.0,4.0,59,0.00,,,0.00,Wunderground v.1.15,2013-03-20 13:29:00,
2013-03-20 09:31:00,35.3,22.4,30.18,WSW,252,3.0,4.0,59,0.00,,,0.00,Wunderground v.1.15,2013-03-20 13:31:00,
2013-03-20 09:34:00,35.7,22.8,30.18,West,276,4.0,6.0,59,0.00,,,0.00,Wunderground v.1.15,2013-03-20 13:34:00,
2013-03-20 09:37:00,35.7,22.8,30.18,West,271,4.0,4.0,59,0.00,,,0.00,Wunderground v.1.15,2013-03-20 13:37:00,
2013-03-20 09:40:00,35.9,23.0,30.18,West,267,4.0,5.0,59,0.00,,,0.00,Wunderground v.1.15,2013-03-20 13:40:00,
2013-03-20 09:42:00,36.1,23.5,30.18,WSW,257,4.0,5.0,60,0.00,,,0.00,Wunderground v.1.15,2013-03-20 13:42:00,
2013-03-20 09:44:00,28.2,12.4,30.15,NNW,340,6.0,10.0,51,0.00,,,0.00,Wunderground v.1.15,2013-03-20 13:44:00,
2013-03-20 09:46:00,36.3,22.9,30.17,NW,309,3.0,3.0,58,0.00,,,0.00,Wunderground v.1.15,2013-03-20 13:46:00,
2013-03-20 09:47:00,36.4,23.0,30.17,WNW,300,3.0,6.0,58,0.00,,,0.00,Wunderground v.1.15,2013-03-20 13:47:00,
2013-03-20 09:50:00,36.7,22.9,30.18,WNW,287,4.0,6.0,57,0.00,,,0.00,Wunderground v.1.15,2013-03-20 13:50:00,
2013-03-20 09:58:00,37.3,22.6,30.18,WNW,292,5.0,6.0,55,0.00,,,0.00,Wunderground v.1.15,2013-03-20 13:58:00,
2013-03-20 10:04:00,37.4,23.1,30.17,SW,227,5.0,8.0,56,0.00,,,0.00,Wunderground v.1.15,2013-03-20 14:04:00,
2013-03-20 10:06:00,37.5,22.8,30.17,WNW,295,5.0,5.0,55,0.00,,,0.00,Wunderground v.1.15,2013-03-20 14:06:00,
2013-03-20 10:11:00,37.6,22.9,30.17,West,263,4.0,7.0,55,0.00,,,0.00,Wunderground v.1.15,2013-03-20 14:11:00,
2013-03-20 10:13:00,27.5,12.6,30.15,WNW,294,4.0,8.0,53,0.00,,,0.00,Wunderground v.1.15,2013-03-20 14:13:00,
2013-03-20 10:15:00,27.5,13.0,30.15,WNW,297,4.0,8.0,54,0.00,,,0.00,Wunderground v.1.15,2013-03-20 14:15:00,
2013-03-20 10:16:00,27.4,12.9,30.15,West,269,4.0,8.0,54,0.00,,,0.00,Wunderground v.1.15,2013-03-20 14:16:00,
2013-03-20 10:18:00,37.6,22.9,30.17,WNW,303,5.0,5.0,55,0.00,,,0.00,Wunderground v.1.15,2013-03-20 14:18:00,
2013-03-20 10:19:00,27.3,12.8,30.15,West,276,4.0,8.0,54,0.00,,,0.00,Wunderground v.1.15,2013-03-20 14:19:00,
2013-03-20 10:20:00,27.2,12.7,30.15,WNW,302,4.0,4.0,54,0.00,,,0.00,Wunderground v.1.15,2013-03-20 14:20:00,
2013-03-20 10:21:00,27.2,12.3,30.15,WNW,294,4.0,4.0,53,0.00,,,0.00,Wunderground v.1.15,2013-03-20 14:21:00,
2013-03-20 10:23:00,37.7,21.6,30.17,NNW,333,5.0,8.0,52,0.00,,,0.00,Wunderground v.1.15,2013-03-20 14:23:00,
2013-03-20 10:24:00,37.7,21.6,30.17,West,281,5.0,8.0,52,0.00,,,0.00,Wunderground v.1.15,2013-03-20 14:24:00,
2013-03-20 10:27:00,27.0,12.5,30.15,WSW,254,4.0,6.0,54,0.00,,,0.00,Wunderground v.1.15,2013-03-20 14:27:00,
2013-03-20 10:29:00,38.0,23.3,30.17,WNW,297,5.0,5.0,55,0.00,,,0.00,Wunderground v.1.15,2013-03-20 14:29:00,
2013-03-20 10:30:00,38.1,22.5,30.17,West,278,5.0,6.0,53,0.00,,,0.00,Wunderground v.1.15,2013-03-20 14:30:00,
2013-03-20 10:33:00,27.0,12.5,30.15,NW,315,5.0,8.0,54,0.00,,,0.00,Wunderground v.1.15,2013-03-20 14:33:00,
2013-03-20 10:35:00,27.0,13.0,30.15,NW,314,5.0,8.0,55,0.00,,,0.00,Wunderground v.1.15,2013-03-20 14:35:00,
2013-03-20 10:36:00,38.3,22.6,30.17,WNW,300,6.0,9.0,53,0.00,,,0.00,Wunderground v.1.15,2013-03-20 14:36:00,
2013-03-20 10:37:00,26.9,12.5,30.15,WNW,293,4.0,8.0,54,0.00,,,0.00,Wunderground v.1.15,2013-03-20 14:37:00,
2013-03-20 10:38:00,38.2,21.6,30.17,NNW,338,6.0,9.0,51,0.00,,,0.00,Wunderground v.1.15,2013-03-20 14:38:00,
2013-03-20 10:40:00,26.9,12.9,30.15,NW,309,4.0,5.0,55,0.00,,,0.00,Wunderground v.1.15,2013-03-20 14:40:00,
2013-03-20 10:44:00,38.4,22.3,30.16,NW,320,6.0,9.0,52,0.00,,,0.00,Wunderground v.1.15,2013-03-20 14:44:00,
2013-03-20 10:45:00,26.8,13.2,30.15,West,269,4.0,5.0,56,0.00,,,0.00,Wunderground v.1.15,2013-03-20 14:45:00,
2013-03-20 10:46:00,26.8,12.8,30.15,NW,317,4.0,5.0,55,0.00,,,0.00,Wunderground v.1.15,2013-03-20 14:46:00,
2013-03-20 10:47:00,26.8,12.8,30.15,NW,322,4.0,5.0,55,0.00,,,0.00,Wunderground v.1.15,2013-03-20 14:47:00,
2013-03-20 10:49:00,26.8,13.2,30.15,NW,320,4.0,5.0,56,0.00,,,0.00,Wunderground v.1.15,2013-03-20 14:49:00,
2013-03-20 10:50:00,38.6,21.1,30.16,WNW,303,7.0,10.0,49,0.00,,,0.00,Wunderground v.1.15,2013-03-20 14:50:00,
2013-03-20 10:53:00,26.7,12.7,30.15,West,267,5.0,7.0,55,0.00,,,0.00,Wunderground v.1.15,2013-03-20 14:53:00,
2013-03-20 10:54:00,26.7,12.7,30.15,NW,305,5.0,7.0,55,0.00,,,0.00,Wunderground v.1.15,2013-03-20 14:54:00,
2013-03-20 10:55:00,26.7,12.7,30.15,West,275,5.0,7.0,55,0.00,,,0.00,Wunderground v.1.15,2013-03-20 14:55:00,
2013-03-20 10:56:00,39.1,21.5,30.16,NW,321,6.0,10.0,49,0.00,,,0.00,Wunderground v.1.15,2013-03-20 14:56:00,
2013-03-20 11:00:00,39.4,21.8,30.16,NW,320,6.0,10.0,49,0.00,,,0.00,Wunderground v.1.15,2013-03-20 15:00:00,
2013-03-20 11:01:00,26.5,12.5,30.15,WNW,302,4.0,5.0,55,0.00,,,0.00,Wunderground v.1.15,2013-03-20 15:01:00,
2013-03-20 11:03:00,39.3,21.7,30.16,NNW,331,7.0,10.0,49,0.00,,,0.00,Wunderground v.1.15,2013-03-20 15:03:00,
2013-03-20 11:04:00,26.5,13.3,30.15,WNW,286,4.0,5.0,57,0.00,,,0.00,Wunderground v.1.15,2013-03-20 15:04:00,
2013-03-20 11:05:00,26.4,12.8,30.15,West,275,4.0,5.0,56,0.00,,,0.00,Wunderground v.1.15,2013-03-20 15:05:00,
2013-03-20 11:06:00,26.3,12.7,30.15,West,275,4.0,5.0,56,0.00,,,0.00,Wunderground v.1.15,2013-03-20 15:06:00,
2013-03-20 11:07:00,39.5,21.9,30.16,NW,323,7.0,7.0,49,0.00,,,0.00,Wunderground v.1.15,2013-03-20 15:07:00,
2013-03-20 11:08:00,26.2,13.0,30.15,West,279,3.0,5.0,57,0.00,,,0.00,Wunderground v.1.15,2013-03-20 15:08:00,
2013-03-20 11:09:00,26.2,12.6,30.15,West,275,4.0,5.0,56,0.00,,,0.00,Wunderground v.1.15,2013-03-20 15:09:00,
2013-03-20 11:10:00,26.2,12.6,30.15,WNW,299,3.0,3.0,56,0.00,,,0.00,Wunderground v.1.15,2013-03-20 15:10:00,
2013-03-20 11:11:00,26.2,13.0,30.15,West,281,3.0,3.0,57,0.00,,,0.00,Wunderground v.1.15,2013-03-20 15:11:00,
2013-03-20 11:12:00,26.1,12.9,30.15,West,273,3.0,3.0,57,0.00,,,0.00,Wunderground v.1.15,2013-03-20 15:12:00,
2013-03-20 11:13:00,39.1,21.5,30.17,West,267,7.0,11.0,49,0.00,,,0.00,Wunderground v.1.15,2013-03-20 15:13:00,
2013-03-20 11:15:00,26.0,12.8,30.15,WNW,296,3.0,5.0,57,0.00,,,0.00,Wunderground v.1.15,2013-03-20 15:15:00,
2013-03-20 11:16:00,39.2,22.1,30.17,NW,315,6.0,7.0,50,0.00,,,0.00,Wunderground v.1.15,2013-03-20 15:16:00,
2013-03-20 11:17:00,26.1,12.9,30.15,WNW,290,3.0,5.0,57,0.00,,,0.00,Wunderground v.1.15,2013-03-20 15:17:00,
2013-03-20 11:18:00,39.3,22.2,30.16,WSW,249,6.0,7.0,50,0.00,,,0.00,Wunderground v.1.15,2013-03-20 15:18:00,
2013-03-20 11:20:00,39.5,22.4,30.16,WNW,288,6.0,7.0,50,0.00,,,0.00,Wunderground v.1.15,2013-03-20 15:20:00,
2013-03-20 11:21:00,26.1,12.5,30.15,NW,304,3.0,3.0,56,0.00,,,0.00,Wunderground v.1.15,2013-03-20 15:21:00,
2013-03-20 11:22:00,26.1,12.5,30.15,NW,304,3.0,3.0,56,0.00,,,0.00,Wunderground v.1.15,2013-03-20 15:22:00,
2013-03-20 11:23:00,39.5,22.4,30.16,West,269,5.0,7.0,50,0.00,,,0.00,Wunderground v.1.15,2013-03-20 15:23:00,
2013-03-20 11:25:00,26.0,12.4,30.15,West,274,3.0,4.0,56,0.00,,,0.00,Wunderground v.1.15,2013-03-20 15:25:00,
2013-03-20 11:26:00,26.0,12.8,30.15,WNW,300,3.0,6.0,57,0.00,,,0.00,Wunderground v.1.15,2013-03-20 15:26:00,
2013-03-20 11:27:00,26.0,12.8,30.15,NW,308,3.0,6.0,57,0.00,,,0.00,Wunderground v.1.15,2013-03-20 15:27:00,
2013-03-20 11:29:00,39.7,22.1,30.16,West,264,6.0,8.0,49,0.00,,,0.00,Wunderground v.1.15,2013-03-20 15:29:00,
2013-03-20 11:30:00,26.0,12.4,30.15,WNW,287,3.0,3.0,56,0.00,,,0.00,Wunderground v.1.15,2013-03-20 15:30:00,
2013-03-20 11:31:00,39.7,21.6,30.16,WNW,288,6.0,8.0,48,0.00,,,0.00,Wunderground v.1.15,2013-03-20 15:31:00,
2013-03-20 11:32:00,25.9,12.3,30.14,West,270,3.0,3.0,56,0.00,,,0.00,Wunderground v.1.15,2013-03-20 15:32:00,
2013-03-20 11:33:00,40.1,22.9,30.16,West,274,6.0,8.0,50,0.00,,,0.00,Wunderground v.1.15,2013-03-20 15:33:00,
2013-03-20 11:36:00,40.6,22.9,30.16,NNW,346,6.0,6.0,49,0.00,,,0.00,Wunderground v.1.15,2013-03-20 15:36:00,
2013-03-20 11:37:00,40.8,22.1,30.16,WNW,289,6.0,8.0,47,0.00,,,0.00,Wunderground v.1.15,2013-03-20 15:37:00,
2013-03-20 11:38:00,25.7,12.6,30.14,West,279,2.0,3.0,57,0.00,,,0.00,Wunderground v.1.15,2013-03-20 15:38:00,
2013-03-20 11:39:00,25.7,12.6,30.14,West,271,2.0,3.0,57,0.00,,,0.00,Wunderground v.1.15,2013-03-20 15:39:00,
2013-03-20 11:40:00,25.6,12.5,30.14,West,259,2.0,2.0,57,0.00,,,0.00,Wunderground v.1.15,2013-03-20 15:40:00,
2013-03-20 11:41:00,25.6,12.5,30.14,WSW,258,2.0,2.0,57,0.00,,,0.00,Wunderground v.1.15,2013-03-20 15:41:00,
2013-03-20 11:42:00,40.8,21.6,30.16,SW,233,7.0,9.0,46,0.00,,,0.00,Wunderground v.1.15,2013-03-20 15:42:00,
2013-03-20 11:43:00,25.5,12.4,30.14,West,259,2.0,2.0,57,0.00,,,0.00,Wunderground v.1.15,2013-03-20 15:43:00,
2013-03-20 11:44:00,25.5,12.4,30.14,WSW,242,2.0,5.0,57,0.00,,,0.00,Wunderground v.1.15,2013-03-20 15:44:00,
2013-03-20 11:46:00,40.4,20.7,30.15,West,277,8.0,8.0,45,0.00,,,0.00,Wunderground v.1.15,2013-03-20 15:46:00,
2013-03-20 11:47:00,40.5,20.8,30.15,West,273,8.0,9.0,45,0.00,,,0.00,Wunderground v.1.15,2013-03-20 15:47:00,
2013-03-20 11:48:00,25.4,12.7,30.14,West,274,2.0,5.0,58,0.00,,,0.00,Wunderground v.1.15,2013-03-20 15:48:00,
2013-03-20 11:49:00,25.3,12.6,30.14,West,274,2.0,5.0,58,0.00,,,0.00,Wunderground v.1.15,2013-03-20 15:49:00,
2013-03-20 11:50:00,25.3,12.6,30.14,West,263,2.0,2.0,58,0.00,,,0.00,Wunderground v.1.15,2013-03-20 15:50:00,
2013-03-20 11:52:00,25.2,12.5,30.14,West,267,2.0,3.0,58,0.00,,,0.00,Wunderground v.1.15,2013-03-20 15:52:00,
2013-03-20 11:53:00,40.9,21.7,30.15,West,281,7.0,9.0,46,0.00,,,0.00,Wunderground v.1.15,2013-03-20 15:53:00,
2013-03-20 11:54:00,25.2,12.5,30.14,West,278,2.0,3.0,58,0.00,,,0.00,Wunderground v.1.15,2013-03-20 15:54:00,
2013-03-20 11:55:00,25.2,12.9,30.14,WNW,287,2.0,3.0,59,0.00,,,0.00,Wunderground v.1.15,2013-03-20 15:55:00,
2013-03-20 11:56:00,25.2,12.9,30.14,WNW,284,2.0,3.0,59,0.00,,,0.00,Wunderground v.1.15,2013-03-20 15:56:00,
2013-03-20 11:57:00,41.9,21.5,30.15,WNW,289,6.0,6.0,44,0.00,,,0.00,Wunderground v.1.15,2013-03-20 15:57:00,
2013-03-20 12:00:00,42.4,21.5,30.15,SSW,209,5.0,6.0,43,0.00,,,0.00,Wunderground v.1.15,2013-03-20 16:00:00,
2013-03-20 12:02:00,42.5,21.0,30.15,WSW,252,5.0,11.0,42,0.00,,,0.00,Wunderground v.1.15,2013-03-20 16:02:00,
2013-03-20 12:04:00,42.0,21.1,30.15,WSW,252,6.0,11.0,43,0.00,,,0.00,Wunderground v.1.15,2013-03-20 16:04:00,
2013-03-20 12:05:00,24.9,13.0,30.14,West,281,2.0,2.0,60,0.00,,,0.00,Wunderground v.1.15,2013-03-20 16:05:00,
2013-03-20 12:06:00,24.8,12.9,30.14,WNW,284,2.0,2.0,60,0.00,,,0.00,Wunderground v.1.15,2013-03-20 16:06:00,
2013-03-20 12:07:00,41.9,21.0,30.15,West,275,7.0,13.0,43,0.00,,,0.00,Wunderground v.1.15,2013-03-20 16:07:00,
2013-03-20 12:08:00,24.8,12.9,30.14,WNW,284,2.0,3.0,60,0.00,,,0.00,Wunderground v.1.15,2013-03-20 16:08:00,
2013-03-20 12:09:00,24.8,12.9,30.14,West,279,2.0,3.0,60,0.00,,,0.00,Wunderground v.1.15,2013-03-20 16:09:00,
2013-03-20 12:10:00,41.8,20.4,30.15,West,265,7.0,13.0,42,0.00,,,0.00,Wunderground v.1.15,2013-03-20 16:10:00,
2013-03-20 12:11:00,24.8,12.9,30.14,West,279,2.0,3.0,60,0.00,,,0.00,Wunderground v.1.15,2013-03-20 16:11:00,
2013-03-20 12:12:00,24.7,12.8,30.14,West,266,2.0,3.0,60,0.00,,,0.00,Wunderground v.1.15,2013-03-20 16:12:00,
2013-03-20 12:13:00,41.6,19.6,30.15,WNW,286,8.0,13.0,41,0.00,,,0.00,Wunderground v.1.15,2013-03-20 16:13:00,
2013-03-20 12:14:00,24.7,12.8,30.14,West,266,2.0,3.0,60,0.00,,,0.00,Wunderground v.1.15,2013-03-20 16:14:00,
2013-03-20 12:15:00,24.7,12.8,30.14,West,266,2.0,3.0,60,0.00,,,0.00,Wunderground v.1.15,2013-03-20 16:15:00,
2013-03-20 12:16:00,41.2,19.2,30.15,West,271,9.0,9.0,41,0.00,,,0.00,Wunderground v.1.15,2013-03-20 16:16:00,
2013-03-20 12:17:00,24.7,12.8,30.14,West,266,2.0,3.0,60,0.00,,,0.00,Wunderground v.1.15,2013-03-20 16:17:00,
2013-03-20 12:18:00,41.3,18.8,30.15,WNW,288,9.0,9.0,40,0.00,,,0.00,Wunderground v.1.15,2013-03-20 16:18:00,
2013-03-20 12:19:00,41.3,18.8,30.15,WSW,238,9.0,13.0,40,0.00,,,0.00,Wunderground v.1.15,2013-03-20 16:19:00,
2013-03-20 12:20:00,24.6,12.7,30.14,West,266,2.0,2.0,60,0.00,,,0.00,Wunderground v.1.15,2013-03-20 16:20:00,
2013-03-20 12:21:00,24.6,12.7,30.14,West,266,2.0,2.0,60,0.00,,,0.00,Wunderground v.1.15,2013-03-20 16:21:00,
2013-03-20 12:22:00,24.5,12.6,30.14,West,266,2.0,2.0,60,0.00,,,0.00,Wunderground v.1.15,2013-03-20 16:22:00,
2013-03-20 12:23:00,41.5,18.9,30.16,WNW,290,9.0,13.0,40,0.00,,,0.00,Wunderground v.1.15,2013-03-20 16:23:00,
2013-03-20 12:24:00,24.5,13.0,30.14,West,266,1.0,2.0,61,0.00,,,0.00,Wunderground v.1.15,2013-03-20 16:24:00,
2013-03-20 12:25:00,41.5,20.1,30.15,West,265,9.0,13.0,42,0.00,,,0.00,Wunderground v.1.15,2013-03-20 16:25:00,
2013-03-20 12:26:00,24.5,13.0,30.13,WSW,257,1.0,2.0,61,0.00,,,0.00,Wunderground v.1.15,2013-03-20 16:26:00,
2013-03-20 12:27:00,24.5,13.0,30.13,WSW,257,1.0,2.0,61,0.00,,,0.00,Wunderground v.1.15,2013-03-20 16:27:00,
2013-03-20 12:28:00,41.5,19.5,30.15,WNW,300,9.0,13.0,41,0.00,,,0.00,Wunderground v.1.15,2013-03-20 16:28:00,
2013-03-20 12:29:00,24.5,13.0,30.13,WSW,254,1.0,2.0,61,0.00,,,0.00,Wunderground v.1.15,2013-03-20 16:29:00,
2013-03-20 12:30:00,24.4,12.9,30.13,WSW,254,1.0,2.0,61,0.00,,,0.00,Wunderground v.1.15,2013-03-20 16:30:00,
2013-03-20 12:31:00,24.4,12.9,30.13,WSW,254,1.0,2.0,61,0.00,,,0.00,Wunderground v.1.15,2013-03-20 16:31:00,
2013-03-20 12:32:00,24.4,12.9,30.13,WSW,254,1.0,2.0,61,0.00,,,0.00,Wunderground v.1.15,2013-03-20 16:32:00,
2013-03-20 12:33:00,41.5,20.6,30.15,WNW,294,8.0,13.0,43,0.00,,,0.00,Wunderground v.1.15,2013-03-20 16:33:00,
2013-03-20 12:34:00,41.6,20.2,30.15,WNW,288,8.0,13.0,42,0.00,,,0.00,Wunderground v.1.15,2013-03-20 16:34:00,
2013-03-20 12:35:00,24.3,13.1,30.13,West,265,2.0,2.0,62,0.00,,,0.00,Wunderground v.1.15,2013-03-20 16:35:00,
2013-03-20 12:36:00,41.5,18.4,30.16,West,279,8.0,10.0,39,0.00,,,0.00,Wunderground v.1.15,2013-03-20 16:36:00,
2013-03-20 12:37:00,24.4,13.2,30.13,West,265,2.0,2.0,62,0.00,,,0.00,Wunderground v.1.15,2013-03-20 16:37:00,
2013-03-20 12:38:00,24.3,13.1,30.13,West,267,2.0,2.0,62,0.00,,,0.00,Wunderground v.1.15,2013-03-20 16:38:00,
2013-03-20 12:39:00,41.1,16.1,30.16,SW,225,9.0,14.0,36,0.00,,,0.00,Wunderground v.1.15,2013-03-20 16:39:00,
2013-03-20 12:40:00,24.3,13.1,30.13,West,260,2.0,2.0,62,0.00,,,0.00,Wunderground v.1.15,2013-03-20 16:40:00,
2013-03-20 12:41:00,24.3,13.1,30.13,West,260,2.0,2.0,62,0.00,,,0.00,Wunderground v.1.15,2013-03-20 16:41:00,
2013-03-20 12:42:00,41.1,17.4,30.16,WSW,258,9.0,14.0,38,0.00,,,0.00,Wunderground v.1.15,2013-03-20 16:42:00,
2013-03-20 12:43:00,24.3,13.1,30.13,West,260,2.0,2.0,62,0.00,,,0.00,Wunderground v.1.15,2013-03-20 16:43:00,
2013-03-20 12:44:00,24.2,13.0,30.13,West,260,2.0,2.0,62,0.00,,,0.00,Wunderground v.1.15,2013-03-20 16:44:00,
2013-03-20 12:45:00,24.2,13.0,30.13,West,260,2.0,2.0,62,0.00,,,0.00,Wunderground v.1.15,2013-03-20 16:45:00,
2013-03-20 12:46:00,41.0,17.3,30.16,NW,311,10.0,10.0,38,0.00,,,0.00,Wunderground v.1.15,2013-03-20 16:46:00,
2013-03-20 12:47:00,24.2,13.0,30.13,West,260,2.0,2.0,62,0.00,,,0.00,Wunderground v.1.15,2013-03-20 16:47:00,
2013-03-20 12:48:00,41.3,17.6,30.16,WNW,291,9.0,10.0,38,0.00,,,0.00,Wunderground v.1.15,2013-03-20 16:48:00,
2013-03-20 12:49:00,24.1,12.9,30.13,West,260,2.0,2.0,62,0.00,,,0.00,Wunderground v.1.15,2013-03-20 16:49:00,
2013-03-20 12:50:00,41.4,16.4,30.16,NW,306,9.0,11.0,36,0.00,,,0.00,Wunderground v.1.15,2013-03-20 16:50:00,
2013-03-20 12:51:00,40.9,16.0,30.16,WNW,298,9.0,11.0,36,0.00,,,0.00,Wunderground v.1.15,2013-03-20 16:51:00,
2013-03-20 12:52:00,24.0,12.9,30.13,West,260,2.0,2.0,62,0.00,,,0.00,Wunderground v.1.15,2013-03-20 16:52:00,
2013-03-20 12:53:00,24.0,13.2,30.13,West,260,2.0,2.0,63,0.00,,,0.00,Wunderground v.1.15,2013-03-20 16:53:00,
2013-03-20 12:54:00,41.0,17.3,30.16,WNW,302,9.0,13.0,38,0.00,,,0.00,Wunderground v.1.15,2013-03-20 16:54:00,
2013-03-20 12:55:00,23.9,13.1,30.13,West,260,2.0,2.0,63,0.00,,,0.00,Wunderground v.1.15,2013-03-20 16:55:00,
2013-03-20 12:56:00,23.9,13.1,30.13,West,260,2.0,2.0,63,0.00,,,0.00,Wunderground v.1.15,2013-03-20 16:56:00,
2013-03-20 12:57:00,23.9,13.1,30.13,West,260,2.0,2.0,63,0.00,,,0.00,Wunderground v.1.15,2013-03-20 16:57:00,
2013-03-20 12:58:00,23.9,13.1,30.13,West,260,2.0,2.0,63,0.00,,,0.00,Wunderground v.1.15,2013-03-20 16:58:00,
2013-03-20 12:59:00,23.9,13.1,30.13,West,260,2.0,2.0,63,0.00,,,0.00,Wunderground v.1.15,2013-03-20 16:59:00,
2013-03-20 13:00:00,23.9,13.1,30.13,West,260,2.0,2.0,63,0.00,,,0.00,Wunderground v.1.15,2013-03-20 17:00:00,
2013-03-20 13:01:00,23.8,13.0,30.13,West,260,1.0,2.0,63,0.00,,,0.00,Wunderground v.1.15,2013-03-20 17:01:00,
2013-03-20 13:02:00,23.8,13.0,30.13,West,260,1.0,2.0,63,0.00,,,0.00,Wunderground v.1.15,2013-03-20 17:02:00,
2013-03-20 13:03:00,23.8,13.4,30.13,West,260,1.0,2.0,64,0.00,,,0.00,Wunderground v.1.15,2013-03-20 17:03:00,
2013-03-20 13:04:00,40.8,18.9,30.16,West,273,9.0,15.0,41,0.00,,,0.00,Wunderground v.1.15,2013-03-20 17:04:00,
2013-03-20 13:05:00,40.8,18.3,30.16,WNW,300,9.0,10.0,40,0.00,,,0.00,Wunderground v.1.15,2013-03-20 17:05:00,
2013-03-20 13:06:00,23.8,13.4,30.13,West,260,1.0,2.0,64,0.00,,,0.00,Wunderground v.1.15,2013-03-20 17:06:00,
2013-03-20 13:07:00,23.8,13.4,30.13,WSW,252,2.0,3.0,64,0.00,,,0.00,Wunderground v.1.15,2013-03-20 17:07:00,
2013-03-20 13:08:00,23.8,13.4,30.13,WSW,252,2.0,3.0,64,0.00,,,0.00,Wunderground v.1.15,2013-03-20 17:08:00,
2013-03-20 13:09:00,23.8,13.4,30.13,WSW,241,1.0,4.0,64,0.00,,,0.00,Wunderground v.1.15,2013-03-20 17:09:00,
2013-03-20 13:10:00,23.8,13.4,30.13,WSW,248,2.0,3.0,64,0.00,,,0.00,Wunderground v.1.15,2013-03-20 17:10:00,
2013-03-20 13:11:00,40.7,19.9,30.16,West,273,9.0,14.0,43,0.00,,,0.00,Wunderground v.1.15,2013-03-20 17:11:00,
2013-03-20 13:12:00,23.7,13.3,30.13,West,259,2.0,3.0,64,0.00,,,0.00,Wunderground v.1.15,2013-03-20 17:12:00,
2013-03-20 13:13:00,23.7,13.3,30.13,WSW,254,2.0,3.0,64,0.00,,,0.00,Wunderground v.1.15,2013-03-20 17:13:00,
2013-03-20 13:14:00,23.7,13.3,30.13,WSW,254,2.0,3.0,64,0.00,,,0.00,Wunderground v.1.15,2013-03-20 17:14:00,
2013-03-20 13:16:00,40.8,18.9,30.16,West,270,9.0,9.0,41,0.00,,,0.00,Wunderground v.1.15,2013-03-20 17:16:00,
2013-03-20 13:17:00,40.7,19.4,30.16,WNW,295,9.0,9.0,42,0.00,,,0.00,Wunderground v.1.15,2013-03-20 17:17:00,
2013-03-20 13:18:00,23.7,13.3,30.13,WSW,247,2.0,3.0,64,0.00,,,0.00,Wunderground v.1.15,2013-03-20 17:18:00,
2013-03-20 13:19:00,40.7,18.8,30.16,WSW,257,9.0,12.0,41,0.00,,,0.00,Wunderground v.1.15,2013-03-20 17:19:00,
2013-03-20 13:20:00,23.7,13.3,30.13,WSW,254,2.0,2.0,64,0.00,,,0.00,Wunderground v.1.15,2013-03-20 17:20:00,
2013-03-20 13:21:00,23.6,13.5,30.13,West,259,2.0,2.0,65,0.00,,,0.00,Wunderground v.1.15,2013-03-20 17:21:00,
2013-03-20 13:22:00,23.6,13.2,30.13,WSW,244,2.0,2.0,64,0.00,,,0.00,Wunderground v.1.15,2013-03-20 17:22:00,
2013-03-20 13:23:00,40.5,20.3,30.16,West,261,8.0,12.0,44,0.00,,,0.00,Wunderground v.1.15,2013-03-20 17:23:00,
2013-03-20 13:24:00,23.6,13.2,30.13,WSW,244,2.0,4.0,64,0.00,,,0.00,Wunderground v.1.15,2013-03-20 17:24:00,
2013-03-20 13:25:00,40.6,19.8,30.16,WNW,298,8.0,8.0,43,0.00,,,0.00,Wunderground v.1.15,2013-03-20 17:25:00,
2013-03-20 13:28:00,40.2,19.5,30.16,WNW,297,9.0,10.0,43,0.00,,,0.00,Wunderground v.1.15,2013-03-20 17:28:00,
2013-03-20 13:32:00,23.5,13.5,30.13,West,269,2.0,3.0,65,0.00,,,0.00,Wunderground v.1.15,2013-03-20 17:32:00,
2013-03-20 13:35:00,40.5,19.2,30.15,NW,311,8.0,12.0,42,0.00,,,0.00,Wunderground v.1.15,2013-03-20 17:35:00,
2013-03-20 13:36:00,23.5,13.5,30.13,West,271,2.0,3.0,65,0.00,,,0.00,Wunderground v.1.15,2013-03-20 17:36:00,
2013-03-20 13:37:00,40.5,20.3,30.16,NW,317,8.0,11.0,44,0.00,,,0.00,Wunderground v.1.15,2013-03-20 17:37:00,
2013-03-20 13:43:00,39.6,20.0,30.15,WNW,290,8.0,11.0,45,0.00,,,0.00,Wunderground v.1.15,2013-03-20 17:43:00,
2013-03-20 13:45:00,39.6,20.0,30.15,NW,323,8.0,8.0,45,0.00,,,0.00,Wunderground v.1.15,2013-03-20 17:45:00,
2013-03-20 13:46:00,23.4,13.4,30.12,WNW,284,2.0,3.0,65,0.00,,,0.00,Wunderground v.1.15,2013-03-20 17:46:00,
2013-03-20 13:49:00,23.4,13.4,30.12,West,275,2.0,3.0,65,0.00,,,0.00,Wunderground v.1.15,2013-03-20 17:49:00,
2013-03-20 13:50:00,40.0,19.8,30.15,NW,323,8.0,10.0,44,0.00,,,0.00,Wunderground v.1.15,2013-03-20 17:50:00,
2013-03-20 13:52:00,40.4,19.6,30.15,SW,232,7.0,11.0,43,0.00,,,0.00,Wunderground v.1.15,2013-03-20 17:52:00,
2013-03-20 14:00:00,37.9,18.4,30.15,West,281,8.0,12.0,45,0.00,,,0.00,Wunderground v.1.15,2013-03-20 18:00:00,
2013-03-20 14:04:00,37.5,18.6,30.15,West,272,8.0,13.0,46,0.00,,,0.00,Wunderground v.1.15,2013-03-20 18:04:00,
2013-03-20 14:05:00,37.6,19.2,30.15,WSW,254,8.0,9.0,47,0.00,,,0.00,Wunderground v.1.15,2013-03-20 18:05:00,
2013-03-20 14:10:00,37.8,20.3,30.15,NNW,341,8.0,12.0,49,0.00,,,0.00,Wunderground v.1.15,2013-03-20 18:10:00,
2013-03-20 14:17:00,37.7,19.8,30.15,West,267,7.0,8.0,48,0.00,,,0.00,Wunderground v.1.15,2013-03-20 18:17:00,
2013-03-20 14:21:00,37.5,20.5,30.15,WNW,292,7.0,10.0,50,0.00,,,0.00,Wunderground v.1.15,2013-03-20 18:21:00,
2013-03-20 14:23:00,37.4,20.0,30.15,NW,322,7.0,10.0,49,0.00,,,0.00,Wunderground v.1.15,2013-03-20 18:23:00,
2013-03-20 14:28:00,37.3,19.9,30.15,NW,306,7.0,12.0,49,0.00,,,0.00,Wunderground v.1.15,2013-03-20 18:28:00,
2013-03-20 14:32:00,37.4,19.5,30.15,WNW,292,7.0,13.0,48,0.00,,,0.00,Wunderground v.1.15,2013-03-20 18:32:00,
2013-03-20 14:33:00,37.3,18.4,30.15,SW,233,7.0,13.0,46,0.00,,,0.00,Wunderground v.1.15,2013-03-20 18:33:00,
2013-03-20 14:37:00,37.3,18.9,30.14,NNW,348,8.0,8.0,47,0.00,,,0.00,Wunderground v.1.15,2013-03-20 18:37:00,
2013-03-20 14:40:00,37.5,19.1,30.13,West,265,7.0,9.0,47,0.00,,,0.00,Wunderground v.1.15,2013-03-20 18:40:00,
2013-03-20 14:43:00,37.7,19.3,30.14,WNW,294,6.0,9.0,47,0.00,,,0.00,Wunderground v.1.15,2013-03-20 18:43:00,
2013-03-20 14:49:00,38.5,18.4,30.14,West,269,7.0,10.0,44,0.00,,,0.00,Wunderground v.1.15,2013-03-20 18:49:00,
2013-03-20 14:54:00,38.7,19.2,30.14,West,269,9.0,10.0,45,0.00,,,0.00,Wunderground v.1.15,2013-03-20 18:54:00,
2013-03-20 14:57:00,38.5,19.0,30.13,West,265,9.0,13.0,45,0.00,,,0.00,Wunderground v.1.15,2013-03-20 18:57:00,
2013-03-20 15:00:00,38.5,19.0,30.13,West,263,9.0,13.0,45,0.00,,,0.00,Wunderground v.1.15,2013-03-20 19:00:00,
2013-03-20 15:03:00,38.7,19.2,30.13,West,262,9.0,13.0,45,0.00,,,0.00,Wunderground v.1.15,2013-03-20 19:03:00,
2013-03-20 15:05:00,39.2,20.6,30.13,WNW,295,8.0,13.0,47,0.00,,,0.00,Wunderground v.1.15,2013-03-20 19:05:00,
2013-03-20 15:07:00,39.6,20.0,30.13,West,269,8.0,10.0,45,0.00,,,0.00,Wunderground v.1.15,2013-03-20 19:07:00,
2013-03-20 15:08:00,39.8,20.2,30.12,NW,321,7.0,10.0,45,0.00,,,0.00,Wunderground v.1.15,2013-03-20 19:08:00,
2013-03-20 15:09:00,22.9,12.5,30.11,West,277,2.0,2.0,64,0.00,,,0.00,Wunderground v.1.15,2013-03-20 19:09:00,
2013-03-20 15:11:00,39.5,19.4,30.12,NW,309,7.0,10.0,44,0.00,,,0.00,Wunderground v.1.15,2013-03-20 19:11:00,
2013-03-20 15:14:00,38.8,18.7,30.12,NW,313,8.0,11.0,44,0.00,,,0.00,Wunderground v.1.15,2013-03-20 19:14:00,
2013-03-20 15:15:00,22.8,12.8,30.11,West,271,1.0,2.0,65,0.00,,,0.00,Wunderground v.1.15,2013-03-20 19:15:00,
2013-03-20 15:19:00,22.9,12.9,30.11,West,275,2.0,2.0,65,0.00,,,0.00,Wunderground v.1.15,2013-03-20 19:19:00,
2013-03-20 15:20:00,38.6,19.6,30.12,WNW,299,8.0,11.0,46,0.00,,,0.00,Wunderground v.1.15,2013-03-20 19:20:00,
2013-03-20 15:24:00,22.9,12.9,30.11,West,275,1.0,2.0,65,0.00,,,0.00,Wunderground v.1.15,2013-03-20 19:24:00,
2013-03-20 15:25:00,37.5,17.5,30.11,NW,307,8.0,9.0,44,0.00,,,0.00,Wunderground v.1.15,2013-03-20 19:25:00,
2013-03-20 15:27:00,37.3,17.4,30.11,WSW,250,8.0,9.0,44,0.00,,,0.00,Wunderground v.1.15,2013-03-20 19:27:00,
2013-03-20 15:28:00,37.2,17.8,30.11,WNW,301,8.0,9.0,45,0.00,,,0.00,Wunderground v.1.15,2013-03-20 19:28:00,
2013-03-20 15:31:00,37.1,17.7,30.11,NW,319,8.0,9.0,45,0.00,,,0.00,Wunderground v.1.15,2013-03-20 19:31:00,
2013-03-20 15:32:00,37.2,18.3,30.11,NW,311,8.0,10.0,46,0.00,,,0.00,Wunderground v.1.15,2013-03-20 19:32:00,
2013-03-20 15:34:00,37.3,18.4,30.11,WNW,298,8.0,14.0,46,0.00,,,0.00,Wunderground v.1.15,2013-03-20 19:34:00,
2013-03-20 15:35:00,22.8,12.8,30.10,West,276,1.0,2.0,65,0.00,,,0.00,Wunderground v.1.15,2013-03-20 19:35:00,
2013-03-20 15:36:00,22.8,12.8,30.10,West,276,1.0,2.0,65,0.00,,,0.00,Wunderground v.1.15,2013-03-20 19:36:00,
2013-03-20 15:38:00,38.1,20.1,30.11,NW,321,7.0,8.0,48,0.00,,,0.00,Wunderground v.1.15,2013-03-20 19:38:00,
2013-03-20 15:40:00,22.7,12.7,30.10,West,270,1.0,1.0,65,0.00,,,0.00,Wunderground v.1.15,2013-03-20 19:40:00,
2013-03-20 15:41:00,38.7,20.2,30.11,WNW,289,6.0,9.0,47,0.00,,,0.00,Wunderground v.1.15,2013-03-20 19:41:00,
2013-03-20 15:43:00,39.1,19.5,30.11,West,263,6.0,9.0,45,0.00,,,0.00,Wunderground v.1.15,2013-03-20 19:43:00,
2013-03-20 15:44:00,22.6,12.6,30.10,WNW,288,1.0,2.0,65,0.00,,,0.00,Wunderground v.1.15,2013-03-20 19:44:00,
2013-03-20 15:45:00,22.5,12.8,30.10,WNW,282,1.0,3.0,66,0.00,,,0.00,Wunderground v.1.15,2013-03-20 19:45:00,
2013-03-20 15:46:00,22.5,12.5,30.10,WNW,282,1.0,3.0,65,0.00,,,0.00,Wunderground v.1.15,2013-03-20 19:46:00,
2013-03-20 15:47:00,22.5,12.8,30.10,WNW,282,1.0,3.0,66,0.00,,,0.00,Wunderground v.1.15,2013-03-20 19:47:00,
2013-03-20 15:50:00,37.9,18.4,30.11,NNW,332,7.0,10.0,45,0.00,,,0.00,Wunderground v.1.15,2013-03-20 19:50:00,
2013-03-20 15:51:00,22.5,12.8,30.10,West,262,2.0,3.0,66,0.00,,,0.00,Wunderground v.1.15,2013-03-20 19:51:00,
2013-03-20 15:52:00,22.4,12.8,30.10,West,262,2.0,3.0,66,0.00,,,0.00,Wunderground v.1.15,2013-03-20 19:52:00,
2013-03-20 15:53:00,38.7,18.1,30.10,NW,311,8.0,11.0,43,0.00,,,0.00,Wunderground v.1.15,2013-03-20 19:53:00,
2013-03-20 15:54:00,22.4,12.4,30.10,West,262,2.0,3.0,65,0.00,,,0.00,Wunderground v.1.15,2013-03-20 19:54:00,
2013-03-20 15:55:00,22.3,12.3,30.10,West,262,2.0,3.0,65,0.00,,,0.00,Wunderground v.1.15,2013-03-20 19:55:00,
2013-03-20 15:56:00,39.1,18.5,30.10,WNW,290,8.0,10.0,43,0.00,,,0.00,Wunderground v.1.15,2013-03-20 19:56:00,
2013-03-20 15:59:00,39.2,18.0,30.10,NW,309,9.0,10.0,42,0.00,,,0.00,Wunderground v.1.15,2013-03-20 19:59:00,
2013-03-20 16:00:00,22.2,12.6,30.10,West,262,2.0,2.0,66,0.00,,,0.00,Wunderground v.1.15,2013-03-20 20:00:00,
2013-03-20 16:01:00,39.3,18.1,30.10,West,280,9.0,10.0,42,0.00,,,0.00,Wunderground v.1.15,2013-03-20 20:01:00,
2013-03-20 16:02:00,22.1,12.5,30.10,West,262,2.0,2.0,66,0.00,,,0.00,Wunderground v.1.15,2013-03-20 20:02:00,
2013-03-20 16:03:00,39.3,17.5,30.10,WNW,296,8.0,10.0,41,0.00,,,0.00,Wunderground v.1.15,2013-03-20 20:03:00,
2013-03-20 16:04:00,22.1,12.5,30.10,West,261,2.0,2.0,66,0.00,,,0.00,Wunderground v.1.15,2013-03-20 20:04:00,
2013-03-20 16:05:00,22.1,12.5,30.10,West,261,2.0,2.0,66,0.00,,,0.00,Wunderground v.1.15,2013-03-20 20:05:00,
2013-03-20 16:06:00,22.1,12.5,30.10,West,261,2.0,2.0,66,0.00,,,0.00,Wunderground v.1.15,2013-03-20 20:06:00,
2013-03-20 16:07:00,22.1,12.5,30.10,West,261,2.0,2.0,66,0.00,,,0.00,Wunderground v.1.15,2013-03-20 20:07:00,
2013-03-20 16:08:00,39.0,17.8,30.10,NNW,327,8.0,9.0,42,0.00,,,0.00,Wunderground v.1.15,2013-03-20 20:08:00,
2013-03-20 16:09:00,22.1,12.5,30.10,West,261,2.0,3.0,66,0.00,,,0.00,Wunderground v.1.15,2013-03-20 20:09:00,
2013-03-20 16:10:00,38.9,17.7,30.10,WNW,294,8.0,9.0,42,0.00,,,0.00,Wunderground v.1.15,2013-03-20 20:10:00,
2013-03-20 16:11:00,22.2,12.6,30.10,West,273,2.0,2.0,66,0.00,,,0.00,Wunderground v.1.15,2013-03-20 20:11:00,
2013-03-20 16:12:00,39.0,18.4,30.10,West,263,8.0,9.0,43,0.00,,,0.00,Wunderground v.1.15,2013-03-20 20:12:00,
2013-03-20 16:13:00,38.7,17.5,30.11,West,269,8.0,12.0,42,0.00,,,0.00,Wunderground v.1.15,2013-03-20 20:13:00,
2013-03-20 16:14:00,22.1,12.5,30.10,West,273,2.0,2.0,66,0.00,,,0.00,Wunderground v.1.15,2013-03-20 20:14:00,
2013-03-20 16:15:00,22.1,12.5,30.10,West,273,2.0,2.0,66,0.00,,,0.00,Wunderground v.1.15,2013-03-20 20:15:00,
2013-03-20 16:16:00,22.1,12.5,30.10,West,270,2.0,3.0,66,0.00,,,0.00,Wunderground v.1.15,2013-03-20 20:16:00,
2013-03-20 16:17:00,22.1,12.5,30.10,West,270,2.0,3.0,66,0.00,,,0.00,Wunderground v.1.15,2013-03-20 20:17:00,
2013-03-20 16:18:00,38.0,16.9,30.10,WNW,287,8.0,15.0,42,0.00,,,0.00,Wunderground v.1.15,2013-03-20 20:18:00,
2013-03-20 16:20:00,37.4,16.4,30.10,WNW,298,9.0,15.0,42,0.00,,,0.00,Wunderground v.1.15,2013-03-20 20:20:00,
2013-03-20 16:21:00,22.0,12.4,30.10,West,270,2.0,3.0,66,0.00,,,0.00,Wunderground v.1.15,2013-03-20 20:21:00,
2013-03-20 16:22:00,22.0,12.4,30.10,WSW,256,2.0,3.0,66,0.00,,,0.00,Wunderground v.1.15,2013-03-20 20:22:00,
2013-03-20 16:23:00,37.3,15.7,30.10,WSW,244,9.0,15.0,41,0.00,,,0.00,Wunderground v.1.15,2013-03-20 20:23:00,
2013-03-20 16:25:00,37.7,15.5,30.10,North,355,9.0,15.0,40,0.00,,,0.00,Wunderground v.1.15,2013-03-20 20:25:00,
2013-03-20 16:28:00,38.7,17.0,30.10,WSW,254,9.0,10.0,41,0.00,,,0.00,Wunderground v.1.15,2013-03-20 20:28:00,
2013-03-20 16:29:00,38.8,16.5,30.10,West,279,9.0,11.0,40,0.00,,,0.00,Wunderground v.1.15,2013-03-20 20:29:00,
2013-03-20 16:30:00,21.9,12.6,30.09,WSW,250,2.0,2.0,67,0.00,,,0.00,Wunderground v.1.15,2013-03-20 20:30:00,
2013-03-20 16:31:00,21.9,12.6,30.09,WSW,247,2.0,2.0,67,0.00,,,0.00,Wunderground v.1.15,2013-03-20 20:31:00,
2013-03-20 16:32:00,21.9,12.6,30.09,West,261,2.0,2.0,67,0.00,,,0.00,Wunderground v.1.15,2013-03-20 20:32:00,
2013-03-20 16:33:00,21.9,12.6,30.09,West,275,2.0,2.0,67,0.00,,,0.00,Wunderground v.1.15,2013-03-20 20:33:00,
2013-03-20 16:34:00,37.8,16.2,30.10,WNW,289,8.0,13.0,41,0.00,,,0.00,Wunderground v.1.15,2013-03-20 20:34:00,
2013-03-20 16:35:00,21.9,12.6,30.09,West,273,2.0,2.0,67,0.00,,,0.00,Wunderground v.1.15,2013-03-20 20:35:00,
2013-03-20 16:36:00,21.9,12.6,30.09,West,273,2.0,2.0,67,0.00,,,0.00,Wunderground v.1.15,2013-03-20 20:36:00,
2013-03-20 16:37:00,21.8,12.5,30.09,West,273,2.0,2.0,67,0.00,,,0.00,Wunderground v.1.15,2013-03-20 20:37:00,
2013-03-20 16:38:00,37.3,16.3,30.10,WNW,293,8.0,14.0,42,0.00,,,0.00,Wunderground v.1.15,2013-03-20 20:38:00,
2013-03-20 16:39:00,37.5,17.0,30.10,West,266,8.0,14.0,43,0.00,,,0.00,Wunderground v.1.15,2013-03-20 20:39:00,
2013-03-20 16:41:00,37.3,15.7,30.10,West,268,8.0,14.0,41,0.00,,,0.00,Wunderground v.1.15,2013-03-20 20:41:00,
2013-03-20 16:42:00,21.8,12.5,30.09,West,273,2.0,2.0,67,0.00,,,0.00,Wunderground v.1.15,2013-03-20 20:42:00,
2013-03-20 16:43:00,36.8,16.4,30.11,WNW,294,8.0,14.0,43,0.00,,,0.00,Wunderground v.1.15,2013-03-20 20:43:00,
2013-03-20 16:45:00,21.7,12.8,30.09,WSW,258,2.0,3.0,68,0.00,,,0.00,Wunderground v.1.15,2013-03-20 20:45:00,
2013-03-20 16:46:00,21.7,12.8,30.09,WSW,258,2.0,3.0,68,0.00,,,0.00,Wunderground v.1.15,2013-03-20 20:46:00,
2013-03-20 16:47:00,36.4,17.1,30.11,North,350,8.0,12.0,45,0.00,,,0.00,Wunderground v.1.15,2013-03-20 20:47:00,
2013-03-20 16:49:00,36.5,17.7,30.11,WNW,298,8.0,12.0,46,0.00,,,0.00,Wunderground v.1.15,2013-03-20 20:49:00,
2013-03-20 16:50:00,21.6,12.7,30.09,West,273,2.0,2.0,68,0.00,,,0.00,Wunderground v.1.15,2013-03-20 20:50:00,
2013-03-20 16:51:00,37.3,17.9,30.11,WNW,293,8.0,12.0,45,0.00,,,0.00,Wunderground v.1.15,2013-03-20 20:51:00,
2013-03-20 16:52:00,21.6,12.7,30.09,West,272,2.0,2.0,68,0.00,,,0.00,Wunderground v.1.15,2013-03-20 20:52:00,
2013-03-20 16:53:00,21.6,12.7,30.09,West,268,2.0,4.0,68,0.00,,,0.00,Wunderground v.1.15,2013-03-20 20:53:00,
2013-03-20 16:54:00,37.7,17.7,30.11,NW,325,8.0,12.0,44,0.00,,,0.00,Wunderground v.1.15,2013-03-20 20:54:00,
2013-03-20 16:56:00,21.6,13.0,30.09,West,273,2.0,4.0,69,0.00,,,0.00,Wunderground v.1.15,2013-03-20 20:56:00,
2013-03-20 16:57:00,38.0,17.5,30.11,WNW,283,8.0,13.0,43,0.00,,,0.00,Wunderground v.1.15,2013-03-20 20:57:00,
2013-03-20 16:59:00,21.5,12.6,30.09,West,259,2.0,4.0,68,0.00,,,0.00,Wunderground v.1.15,2013-03-20 20:59:00,
2013-03-20 17:00:00,21.5,12.6,30.08,West,277,2.0,2.0,68,0.00,,,0.00,Wunderground v.1.15,2013-03-20 21:00:00,
2013-03-20 17:01:00,21.5,12.6,30.08,West,277,2.0,2.0,68,0.00,,,0.00,Wunderground v.1.15,2013-03-20 21:01:00,
2013-03-20 17:02:00,37.3,16.8,30.11,WSW,251,8.0,13.0,43,0.00,,,0.00,Wunderground v.1.15,2013-03-20 21:02:00,
2013-03-20 17:03:00,37.1,16.6,30.11,WSW,250,8.0,13.0,43,0.00,,,0.00,Wunderground v.1.15,2013-03-20 21:03:00,
2013-03-20 17:04:00,21.5,12.6,30.08,West,277,2.0,3.0,68,0.00,,,0.00,Wunderground v.1.15,2013-03-20 21:04:00,
2013-03-20 17:08:00,37.1,16.6,30.12,WSW,242,7.0,13.0,43,0.00,,,0.00,Wunderground v.1.15,2013-03-20 21:08:00,
2013-03-20 17:09:00,21.6,12.7,30.08,West,271,2.0,3.0,68,0.00,,,0.00,Wunderground v.1.15,2013-03-20 21:09:00,
2013-03-20 17:10:00,37.2,15.6,30.12,WNW,292,7.0,16.0,41,0.00,,,0.00,Wunderground v.1.15,2013-03-20 21:10:00,
2013-03-20 17:11:00,21.6,12.3,30.08,WNW,288,2.0,3.0,67,0.00,,,0.00,Wunderground v.1.15,2013-03-20 21:11:00,
2013-03-20 17:12:00,21.6,12.3,30.08,West,270,2.0,3.0,67,0.00,,,0.00,Wunderground v.1.15,2013-03-20 21:12:00,
2013-03-20 17:13:00,21.6,12.3,30.08,West,270,2.0,3.0,67,0.00,,,0.00,Wunderground v.1.15,2013-03-20 21:13:00,
2013-03-20 17:14:00,36.6,15.6,30.11,WNW,290,7.0,16.0,42,0.00,,,0.00,Wunderground v.1.15,2013-03-20 21:14:00,
2013-03-20 17:15:00,21.6,12.3,30.08,West,267,2.0,3.0,67,0.00,,,0.00,Wunderground v.1.15,2013-03-20 21:15:00,
2013-03-20 17:16:00,36.2,14.7,30.11,WNW,298,7.0,8.0,41,0.00,,,0.00,Wunderground v.1.15,2013-03-20 21:16:00,
2013-03-20 17:17:00,36.1,15.2,30.12,SW,233,8.0,9.0,42,0.00,,,0.00,Wunderground v.1.15,2013-03-20 21:17:00,
2013-03-20 17:19:00,21.5,12.2,30.08,West,272,2.0,3.0,67,0.00,,,0.00,Wunderground v.1.15,2013-03-20 21:19:00,
2013-03-20 17:20:00,36.3,15.4,30.12,West,271,8.0,12.0,42,0.00,,,0.00,Wunderground v.1.15,2013-03-20 21:20:00,
2013-03-20 17:21:00,21.5,12.2,30.08,West,266,2.0,3.0,67,0.00,,,0.00,Wunderground v.1.15,2013-03-20 21:21:00,
2013-03-20 17:22:00,35.8,15.5,30.12,WNW,300,8.0,12.0,43,0.00,,,0.00,Wunderground v.1.15,2013-03-20 21:22:00,
2013-03-20 17:23:00,21.4,12.1,30.08,West,266,2.0,3.0,67,0.00,,,0.00,Wunderground v.1.15,2013-03-20 21:23:00,
2013-03-20 17:24:00,21.4,12.1,30.08,West,266,2.0,3.0,67,0.00,,,0.00,Wunderground v.1.15,2013-03-20 21:24:00,
2013-03-20 17:25:00,21.3,12.4,30.08,WSW,258,2.0,3.0,68,0.00,,,0.00,Wunderground v.1.15,2013-03-20 21:25:00,
2013-03-20 17:26:00,35.1,14.8,30.12,West,264,8.0,8.0,43,0.00,,,0.00,Wunderground v.1.15,2013-03-20 21:26:00,
2013-03-20 17:27:00,21.3,12.0,30.08,West,278,2.0,3.0,67,0.00,,,0.00,Wunderground v.1.15,2013-03-20 21:27:00,
2013-03-20 17:28:00,34.8,15.1,30.12,NW,325,8.0,9.0,44,0.00,,,0.00,Wunderground v.1.15,2013-03-20 21:28:00,
2013-03-20 17:29:00,21.3,12.0,30.08,West,277,2.0,3.0,67,0.00,,,0.00,Wunderground v.1.15,2013-03-20 21:29:00,
2013-03-20 17:31:00,21.3,12.0,30.08,West,277,2.0,2.0,67,0.00,,,0.00,Wunderground v.1.15,2013-03-20 21:31:00,
2013-03-20 17:32:00,21.2,12.3,30.08,West,273,2.0,4.0,68,0.00,,,0.00,Wunderground v.1.15,2013-03-20 21:32:00,
2013-03-20 17:33:00,21.2,11.9,30.08,West,281,2.0,4.0,67,0.00,,,0.00,Wunderground v.1.15,2013-03-20 21:33:00,
2013-03-20 17:34:00,34.6,15.4,30.12,WNW,302,9.0,13.0,45,0.00,,,0.00,Wunderground v.1.15,2013-03-20 21:34:00,
2013-03-20 17:35:00,34.5,15.3,30.12,NW,309,9.0,11.0,45,0.00,,,0.00,Wunderground v.1.15,2013-03-20 21:35:00,
2013-03-20 17:38:00,21.3,12.0,30.08,West,281,2.0,4.0,67,0.00,,,0.00,Wunderground v.1.15,2013-03-20 21:38:00,
2013-03-20 17:40:00,34.1,15.5,30.12,North,355,9.0,14.0,46,0.00,,,0.00,Wunderground v.1.15,2013-03-20 21:40:00,
2013-03-20 17:41:00,21.2,12.3,30.08,West,273,2.0,2.0,68,0.00,,,0.00,Wunderground v.1.15,2013-03-20 21:41:00,
2013-03-20 17:42:00,34.1,15.9,30.12,WSW,248,9.0,14.0,47,0.00,,,0.00,Wunderground v.1.15,2013-03-20 21:42:00,
2013-03-20 17:44:00,21.1,12.2,30.08,West,267,1.0,2.0,68,0.00,,,0.00,Wunderground v.1.15,2013-03-20 21:44:00,
2013-03-20 17:47:00,21.0,12.1,30.08,West,267,1.0,2.0,68,0.00,,,0.00,Wunderground v.1.15,2013-03-20 21:47:00,
2013-03-20 17:48:00,33.9,15.8,30.12,North,349,8.0,9.0,47,0.00,,,0.00,Wunderground v.1.15,2013-03-20 21:48:00,
2013-03-20 17:49:00,34.1,15.9,30.12,WNW,291,8.0,9.0,47,0.00,,,0.00,Wunderground v.1.15,2013-03-20 21:49:00,
2013-03-20 17:50:00,21.0,12.1,30.08,West,266,1.0,2.0,68,0.00,,,0.00,Wunderground v.1.15,2013-03-20 21:50:00,
2013-03-20 17:54:00,34.2,16.0,30.12,WNW,300,7.0,9.0,47,0.00,,,0.00,Wunderground v.1.15,2013-03-20 21:54:00,
2013-03-20 18:01:00,34.3,16.1,30.12,West,272,8.0,13.0,47,0.00,,,0.00,Wunderground v.1.15,2013-03-20 22:01:00,
2013-03-20 18:03:00,34.2,15.5,30.13,WNW,286,7.0,13.0,46,0.00,,,0.00,Wunderground v.1.15,2013-03-20 22:03:00,
2013-03-20 18:08:00,34.6,15.4,30.13,NW,312,8.0,11.0,45,0.00,,,0.00,Wunderground v.1.15,2013-03-20 22:08:00,
2013-03-20 18:11:00,34.0,15.4,30.13,WSW,257,8.0,11.0,46,0.00,,,0.00,Wunderground v.1.15,2013-03-20 22:11:00,
2013-03-20 18:14:00,33.7,15.6,30.13,NW,320,8.0,11.0,47,0.00,,,0.00,Wunderground v.1.15,2013-03-20 22:14:00,
2013-03-20 18:16:00,33.7,15.6,30.13,WNW,292,9.0,9.0,47,0.00,,,0.00,Wunderground v.1.15,2013-03-20 22:16:00,
2013-03-20 18:20:00,33.7,15.6,30.13,West,267,8.0,11.0,47,0.00,,,0.00,Wunderground v.1.15,2013-03-20 22:20:00,
2013-03-20 18:22:00,33.7,14.6,30.13,NW,314,8.0,11.0,45,0.00,,,0.00,Wunderground v.1.15,2013-03-20 22:22:00,
2013-03-20 18:27:00,33.1,14.0,30.13,WNW,284,8.0,11.0,45,0.00,,,0.00,Wunderground v.1.15,2013-03-20 22:27:00,
2013-03-20 18:29:00,33.0,14.4,30.13,NW,322,8.0,11.0,46,0.00,,,0.00,Wunderground v.1.15,2013-03-20 22:29:00,
2013-03-20 18:34:00,32.8,14.8,30.13,NW,315,8.0,15.0,47,0.00,,,0.00,Wunderground v.1.15,2013-03-20 22:34:00,
2013-03-20 18:40:00,20.7,12.1,30.09,West,276,2.0,2.0,69,0.00,,,0.00,Wunderground v.1.15,2013-03-20 22:40:00,
2013-03-20 18:42:00,32.9,15.3,30.13,NW,304,7.0,14.0,48,0.00,,,0.00,Wunderground v.1.15,2013-03-20 22:42:00,
2013-03-20 18:43:00,32.8,14.3,30.13,NW,316,7.0,14.0,46,0.00,,,0.00,Wunderground v.1.15,2013-03-20 22:43:00,
2013-03-20 18:51:00,32.5,15.0,30.13,West,263,6.0,10.0,48,0.00,,,0.00,Wunderground v.1.15,2013-03-20 22:51:00,
2013-03-20 18:56:00,20.8,11.6,30.09,WNW,302,2.0,4.0,67,0.00,,,0.00,Wunderground v.1.15,2013-03-20 22:56:00,
2013-03-20 18:57:00,32.4,14.9,30.13,WSW,245,6.0,9.0,48,0.00,,,0.00,Wunderground v.1.15,2013-03-20 22:57:00,
2013-03-20 18:58:00,32.3,14.3,30.13,WNW,295,6.0,9.0,47,0.00,,,0.00,Wunderground v.1.15,2013-03-20 22:58:00,
2013-03-20 19:00:00,20.8,11.9,30.09,WNW,290,2.0,4.0,68,0.00,,,0.00,Wunderground v.1.15,2013-03-20 23:00:00,
2013-03-20 19:02:00,20.9,11.7,30.09,WNW,284,2.0,4.0,67,0.00,,,0.00,Wunderground v.1.15,2013-03-20 23:02:00,
2013-03-20 19:03:00,20.9,11.7,30.09,WNW,290,3.0,4.0,67,0.00,,,0.00,Wunderground v.1.15,2013-03-20 23:03:00,
2013-03-20 19:05:00,32.0,13.5,30.13,WSW,257,7.0,9.0,46,0.00,,,0.00,Wunderground v.1.15,2013-03-20 23:05:00,
2013-03-20 19:08:00,20.9,11.3,30.09,WNW,297,2.0,6.0,66,0.00,,,0.00,Wunderground v.1.15,2013-03-20 23:08:00,
2013-03-20 19:10:00,31.7,13.3,30.13,WNW,298,7.0,12.0,46,0.00,,,0.00,Wunderground v.1.15,2013-03-20 23:10:00,
2013-03-20 19:11:00,20.9,11.3,30.09,West,268,3.0,5.0,66,0.00,,,0.00,Wunderground v.1.15,2013-03-20 23:11:00,
2013-03-20 19:12:00,21.0,11.1,30.09,WNW,284,2.0,5.0,65,0.00,,,0.00,Wunderground v.1.15,2013-03-20 23:12:00,
2013-03-20 19:14:00,21.0,11.4,30.09,West,265,3.0,5.0,66,0.00,,,0.00,Wunderground v.1.15,2013-03-20 23:14:00,
2013-03-20 19:15:00,31.3,13.9,30.13,NW,317,7.0,7.0,48,0.00,,,0.00,Wunderground v.1.15,2013-03-20 23:15:00,
2013-03-20 19:16:00,31.3,13.9,30.13,WNW,289,7.0,12.0,48,0.00,,,0.00,Wunderground v.1.15,2013-03-20 23:16:00,
2013-03-20 19:18:00,21.1,11.5,30.09,WNW,298,3.0,5.0,66,0.00,,,0.00,Wunderground v.1.15,2013-03-20 23:18:00,
2013-03-20 19:19:00,31.3,13.4,30.13,WNW,291,7.0,15.0,47,0.00,,,0.00,Wunderground v.1.15,2013-03-20 23:19:00,
2013-03-20 19:20:00,31.1,13.2,30.13,WNW,289,7.0,15.0,47,0.00,,,0.00,Wunderground v.1.15,2013-03-20 23:20:00,
2013-03-20 19:21:00,31.0,13.1,30.13,West,281,7.0,15.0,47,0.00,,,0.00,Wunderground v.1.15,2013-03-20 23:21:00,
2013-03-20 19:22:00,21.0,11.4,30.09,West,265,3.0,4.0,66,0.00,,,0.00,Wunderground v.1.15,2013-03-20 23:22:00,
2013-03-20 19:23:00,21.1,11.5,30.09,WNW,302,3.0,4.0,66,0.00,,,0.00,Wunderground v.1.15,2013-03-20 23:23:00,
2013-03-20 19:24:00,30.9,13.0,30.13,WNW,290,7.0,15.0,47,0.00,,,0.00,Wunderground v.1.15,2013-03-20 23:24:00,
2013-03-20 19:26:00,21.0,11.4,30.09,West,273,3.0,5.0,66,0.00,,,0.00,Wunderground v.1.15,2013-03-20 23:26:00,
2013-03-20 19:27:00,30.8,12.9,30.13,NW,306,8.0,12.0,47,0.00,,,0.00,Wunderground v.1.15,2013-03-20 23:27:00,
2013-03-20 19:28:00,21.0,11.4,30.09,WNW,294,3.0,5.0,66,0.00,,,0.00,Wunderground v.1.15,2013-03-20 23:28:00,
2013-03-20 19:30:00,21.0,11.1,30.09,WSW,238,3.0,4.0,65,0.00,,,0.00,Wunderground v.1.15,2013-03-20 23:30:00,
2013-03-20 19:31:00,21.0,11.4,30.09,WNW,292,3.0,4.0,66,0.00,,,0.00,Wunderground v.1.15,2013-03-20 23:31:00,
2013-03-20 19:34:00,30.6,12.2,30.13,WNW,290,8.0,12.0,46,0.00,,,0.00,Wunderground v.1.15,2013-03-20 23:34:00,
2013-03-20 19:36:00,30.6,12.7,30.13,NW,305,8.0,8.0,47,0.00,,,0.00,Wunderground v.1.15,2013-03-20 23:36:00,
2013-03-20 19:37:00,30.6,12.7,30.13,WNW,288,8.0,9.0,47,0.00,,,0.00,Wunderground v.1.15,2013-03-20 23:37:00,
2013-03-20 19:39:00,20.9,11.0,30.09,WSW,255,3.0,4.0,65,0.00,,,0.00,Wunderground v.1.15,2013-03-20 23:39:00,
2013-03-20 19:41:00,30.5,12.2,30.14,NW,317,7.0,9.0,46,0.00,,,0.00,Wunderground v.1.15,2013-03-20 23:41:00,
2013-03-20 19:42:00,30.5,12.6,30.14,NW,306,7.0,9.0,47,0.00,,,0.00,Wunderground v.1.15,2013-03-20 23:42:00,
2013-03-20 19:43:00,20.8,11.2,30.09,West,265,2.0,3.0,66,0.00,,,0.00,Wunderground v.1.15,2013-03-20 23:43:00,
2013-03-20 19:44:00,20.8,11.2,30.09,West,277,2.0,3.0,66,0.00,,,0.00,Wunderground v.1.15,2013-03-20 23:44:00,
2013-03-20 19:45:00,20.7,11.1,30.09,West,277,2.0,3.0,66,0.00,,,0.00,Wunderground v.1.15,2013-03-20 23:45:00,
2013-03-20 19:47:00,30.5,13.1,30.14,WNW,300,6.0,8.0,48,0.00,,,0.00,Wunderground v.1.15,2013-03-20 23:47:00,
2013-03-20 19:50:00,30.4,13.0,30.13,NW,320,6.0,8.0,48,0.00,,,0.00,Wunderground v.1.15,2013-03-20 23:50:00,
2013-03-20 19:51:00,20.5,10.9,30.09,West,281,2.0,5.0,66,0.00,,,0.00,Wunderground v.1.15,2013-03-20 23:51:00,
2013-03-20 19:52:00,30.3,13.4,30.14,WNW,283,6.0,8.0,49,0.00,,,0.00,Wunderground v.1.15,2013-03-20 23:52:00,
2013-03-20 19:54:00,30.3,14.3,30.14,NW,309,6.0,10.0,51,0.00,,,0.00,Wunderground v.1.15,2013-03-20 23:54:00,
2013-03-20 19:56:00,30.2,14.2,30.14,NNW,338,7.0,8.0,51,0.00,,,0.00,Wunderground v.1.15,2013-03-20 23:56:00,
2013-03-20 19:57:00,20.5,11.6,30.09,West,279,2.0,5.0,68,0.00,,,0.00,Wunderground v.1.15,2013-03-20 23:57:00,
2013-03-20 19:58:00,20.4,11.2,30.09,WNW,286,2.0,5.0,67,0.00,,,0.00,Wunderground v.1.15,2013-03-20 23:58:00,
2013-03-20 19:59:00,30.0,14.5,30.14,NW,304,8.0,12.0,52,0.00,,,0.00,Wunderground v.1.15,2013-03-20 23:59:00,
2013-03-20 20:01:00,20.4,11.2,30.09,WNW,286,2.0,2.0,67,0.00,,,0.00,Wunderground v.1.15,2013-03-21 00:01:00,
2013-03-20 20:03:00,29.6,14.1,30.14,NW,311,8.0,12.0,52,0.00,,,0.00,Wunderground v.1.15,2013-03-21 00:03:00,
2013-03-20 20:04:00,20.4,11.2,30.09,West,273,2.0,5.0,67,0.00,,,0.00,Wunderground v.1.15,2013-03-21 00:04:00,
2013-03-20 20:06:00,20.5,11.6,30.09,WNW,284,2.0,5.0,68,0.00,,,0.00,Wunderground v.1.15,2013-03-21 00:06:00,
2013-03-20 20:09:00,29.4,14.4,30.14,NNW,334,8.0,9.0,53,0.00,,,0.00,Wunderground v.1.15,2013-03-21 00:09:00,
2013-03-20 20:11:00,20.5,11.6,30.09,WNW,290,2.0,3.0,68,0.00,,,0.00,Wunderground v.1.15,2013-03-21 00:11:00,
2013-03-20 20:12:00,20.6,11.7,30.09,WNW,300,3.0,3.0,68,0.00,,,0.00,Wunderground v.1.15,2013-03-21 00:12:00,
2013-03-20 20:14:00,29.2,14.6,30.14,NW,317,7.0,13.0,54,0.00,,,0.00,Wunderground v.1.15,2013-03-21 00:14:00,
2013-03-20 20:15:00,29.2,14.6,30.14,WNW,288,7.0,7.0,54,0.00,,,0.00,Wunderground v.1.15,2013-03-21 00:15:00,
2013-03-20 20:18:00,20.8,12.2,30.09,WNW,303,3.0,3.0,69,0.00,,,0.00,Wunderground v.1.15,2013-03-21 00:18:00,
2013-03-20 20:19:00,20.8,11.9,30.10,WNW,284,3.0,3.0,68,0.00,,,0.00,Wunderground v.1.15,2013-03-21 00:19:00,
2013-03-20 20:20:00,20.8,11.9,30.09,WNW,284,3.0,3.0,68,0.00,,,0.00,Wunderground v.1.15,2013-03-21 00:20:00,
2013-03-20 20:21:00,29.0,14.4,30.14,WNW,296,7.0,8.0,54,0.00,,,0.00,Wunderground v.1.15,2013-03-21 00:21:00,
2013-03-20 20:23:00,28.9,15.2,30.15,West,267,6.0,8.0,56,0.00,,,0.00,Wunderground v.1.15,2013-03-21 00:23:00,
2013-03-20 20:24:00,20.8,11.9,30.10,NNW,343,2.0,7.0,68,0.00,,,0.00,Wunderground v.1.15,2013-03-21 00:24:00,
2013-03-20 20:25:00,20.9,12.3,30.10,NW,315,2.0,7.0,69,0.00,,,0.00,Wunderground v.1.15,2013-03-21 00:25:00,
2013-03-20 20:28:00,20.9,12.0,30.10,West,279,3.0,7.0,68,0.00,,,0.00,Wunderground v.1.15,2013-03-21 00:28:00,
2013-03-20 20:29:00,28.7,14.6,30.15,NW,325,6.0,7.0,55,0.00,,,0.00,Wunderground v.1.15,2013-03-21 00:29:00,
2013-03-20 20:30:00,21.1,12.2,30.10,WSW,246,3.0,3.0,68,0.00,,,0.00,Wunderground v.1.15,2013-03-21 00:30:00,
2013-03-20 20:31:00,21.1,12.2,30.10,WNW,284,3.0,3.0,68,0.00,,,0.00,Wunderground v.1.15,2013-03-21 00:31:00,
2013-03-20 20:34:00,28.5,14.4,30.15,NW,315,5.0,7.0,55,0.00,,,0.00,Wunderground v.1.15,2013-03-21 00:34:00,
2013-03-20 20:35:00,21.2,12.3,30.10,NW,307,3.0,5.0,68,0.00,,,0.00,Wunderground v.1.15,2013-03-21 00:35:00,
2013-03-20 20:38:00,21.4,12.5,30.10,West,271,3.0,5.0,68,0.00,,,0.00,Wunderground v.1.15,2013-03-21 00:38:00,
2013-03-20 20:39:00,28.3,13.8,30.14,NW,321,5.0,7.0,54,0.00,,,0.00,Wunderground v.1.15,2013-03-21 00:39:00,
2013-03-20 20:42:00,28.3,14.2,30.15,NW,314,5.0,7.0,55,0.00,,,0.00,Wunderground v.1.15,2013-03-21 00:42:00,
2013-03-20 20:44:00,21.6,13.0,30.11,NW,307,3.0,5.0,69,0.00,,,0.00,Wunderground v.1.15,2013-03-21 00:44:00,
2013-03-20 20:46:00,21.7,12.8,30.11,NW,317,3.0,5.0,68,0.00,,,0.00,Wunderground v.1.15,2013-03-21 00:46:00,
2013-03-20 20:52:00,22.0,12.7,30.11,NW,307,3.0,5.0,67,0.00,,,0.00,Wunderground v.1.15,2013-03-21 00:52:00,
2013-03-20 20:53:00,28.4,13.0,30.14,WNW,296,6.0,9.0,52,0.00,,,0.00,Wunderground v.1.15,2013-03-21 00:53:00,
2013-03-20 20:54:00,22.1,13.1,30.11,WNW,302,3.0,5.0,68,0.00,,,0.00,Wunderground v.1.15,2013-03-21 00:54:00,
2013-03-20 21:00:00,28.4,12.6,30.15,WNW,289,7.0,8.0,51,0.00,,,0.00,Wunderground v.1.15,2013-03-21 01:00:00,
2013-03-20 21:04:00,28.5,13.1,30.15,NW,305,6.0,8.0,52,0.00,,,0.00,Wunderground v.1.15,2013-03-21 01:04:00,
2013-03-20 21:05:00,28.5,13.1,30.15,NW,326,6.0,6.0,52,0.00,,,0.00,Wunderground v.1.15,2013-03-21 01:05:00,
2013-03-20 21:07:00,28.5,13.1,30.15,NNW,346,6.0,6.0,52,0.00,,,0.00,Wunderground v.1.15,2013-03-21 01:07:00,
2013-03-20 21:08:00,22.7,13.0,30.12,NW,309,4.0,5.0,66,0.00,,,0.00,Wunderground v.1.15,2013-03-21 01:08:00,
2013-03-20 21:11:00,28.4,12.6,30.14,NW,321,5.0,10.0,51,0.00,,,0.00,Wunderground v.1.15,2013-03-21 01:11:00,
2013-03-20 21:12:00,28.4,12.6,30.14,NNW,346,5.0,10.0,51,0.00,,,0.00,Wunderground v.1.15,2013-03-21 01:12:00,
2013-03-20 21:13:00,22.9,13.2,30.12,WNW,301,4.0,8.0,66,0.00,,,0.00,Wunderground v.1.15,2013-03-21 01:13:00,
2013-03-20 21:16:00,28.4,12.6,30.14,NNW,328,5.0,6.0,51,0.00,,,0.00,Wunderground v.1.15,2013-03-21 01:16:00,
2013-03-20 21:18:00,28.4,13.0,30.15,WNW,299,5.0,9.0,52,0.00,,,0.00,Wunderground v.1.15,2013-03-21 01:18:00,
2013-03-20 21:20:00,28.4,13.0,30.14,NW,311,5.0,9.0,52,0.00,,,0.00,Wunderground v.1.15,2013-03-21 01:20:00,
2013-03-20 21:21:00,28.3,12.5,30.14,NW,321,6.0,9.0,51,0.00,,,0.00,Wunderground v.1.15,2013-03-21 01:21:00,
2013-03-20 21:24:00,28.3,12.5,30.15,NW,325,6.0,9.0,51,0.00,,,0.00,Wunderground v.1.15,2013-03-21 01:24:00,
2013-03-20 21:25:00,28.4,13.0,30.14,NW,317,6.0,8.0,52,0.00,,,0.00,Wunderground v.1.15,2013-03-21 01:25:00,
2013-03-20 21:26:00,23.1,12.4,30.12,WNW,303,6.0,6.0,63,0.00,,,0.00,Wunderground v.1.15,2013-03-21 01:26:00,
2013-03-20 21:27:00,28.3,12.5,30.15,West,273,6.0,8.0,51,0.00,,,0.00,Wunderground v.1.15,2013-03-21 01:27:00,
2013-03-20 21:30:00,28.3,12.5,30.15,WNW,290,6.0,8.0,51,0.00,,,0.00,Wunderground v.1.15,2013-03-21 01:30:00,
2013-03-20 21:31:00,28.3,12.0,30.15,NW,317,5.0,8.0,50,0.00,,,0.00,Wunderground v.1.15,2013-03-21 01:31:00,
2013-03-20 21:36:00,28.2,12.4,30.15,NW,308,6.0,10.0,51,0.00,,,0.00,Wunderground v.1.15,2013-03-21 01:36:00,
2013-03-20 21:39:00,28.2,12.4,30.15,West,270,6.0,10.0,51,0.00,,,0.00,Wunderground v.1.15,2013-03-21 01:39:00,
2013-03-20 21:40:00,28.2,12.4,30.15,WNW,289,6.0,10.0,51,0.00,,,0.00,Wunderground v.1.15,2013-03-21 01:40:00,
2013-03-20 21:41:00,23.3,12.6,30.12,WNW,288,5.0,5.0,63,0.00,,,0.00,Wunderground v.1.15,2013-03-21 01:41:00,
2013-03-20 21:42:00,28.1,12.3,30.15,West,278,7.0,10.0,51,0.00,,,0.00,Wunderground v.1.15,2013-03-21 01:42:00,
2013-03-20 21:44:00,28.1,12.3,30.14,WNW,290,6.0,10.0,51,0.00,,,0.00,Wunderground v.1.15,2013-03-21 01:44:00,
2013-03-20 21:46:00,28.0,12.6,30.14,NW,309,5.0,6.0,52,0.00,,,0.00,Wunderground v.1.15,2013-03-21 01:46:00,
2013-03-20 21:48:00,27.9,12.5,30.14,NW,309,5.0,6.0,52,0.00,,,0.00,Wunderground v.1.15,2013-03-21 01:48:00,
2013-03-20 21:49:00,23.3,11.8,30.13,NNW,329,6.0,9.0,61,0.00,,,0.00,Wunderground v.1.15,2013-03-21 01:49:00,
2013-03-20 21:50:00,23.4,12.3,30.13,WNW,303,6.0,6.0,62,0.00,,,0.00,Wunderground v.1.15,2013-03-21 01:50:00,
2013-03-20 21:51:00,27.8,12.0,30.14,West,277,4.0,6.0,51,0.00,,,0.00,Wunderground v.1.15,2013-03-21 01:51:00,
2013-03-20 21:52:00,23.6,12.1,30.13,NW,311,6.0,10.0,61,0.00,,,0.00,Wunderground v.1.15,2013-03-21 01:52:00,
2013-03-20 21:53:00,27.8,12.4,30.15,NW,310,4.0,8.0,52,0.00,,,0.00,Wunderground v.1.15,2013-03-21 01:53:00,
2013-03-20 21:54:00,27.8,12.4,30.15,NW,313,4.0,8.0,52,0.00,,,0.00,Wunderground v.1.15,2013-03-21 01:54:00,
2013-03-20 21:55:00,27.8,12.4,30.15,NNW,327,5.0,8.0,52,0.00,,,0.00,Wunderground v.1.15,2013-03-21 01:55:00,
2013-03-20 21:57:00,23.6,12.1,30.13,NW,304,5.0,10.0,61,0.00,,,0.00,Wunderground v.1.15,2013-03-21 01:57:00,
2013-03-20 21:58:00,23.6,11.7,30.13,NNE,13,5.0,10.0,60,0.00,,,0.00,Wunderground v.1.15,2013-03-21 01:58:00,
2013-03-20 22:00:00,27.7,11.9,30.15,WNW,302,6.0,8.0,51,0.00,,,0.00,Wunderground v.1.15,2013-03-21 02:00:00,
2013-03-20 22:04:00,23.3,11.4,30.13,NW,317,5.0,8.0,60,0.00,,,0.00,Wunderground v.1.15,2013-03-21 02:04:00,
2013-03-20 22:05:00,27.6,13.1,30.15,North,351,5.0,8.0,54,0.00,,,0.00,Wunderground v.1.15,2013-03-21 02:05:00,
2013-03-20 22:10:00,27.5,13.0,30.15,West,273,4.0,8.0,54,0.00,,,0.00,Wunderground v.1.15,2013-03-21 02:10:00,
2013-03-20 22:12:00,27.4,12.5,30.15,WNW,289,4.0,8.0,53,0.00,,,0.00,Wunderground v.1.15,2013-03-21 02:12:00,
2013-03-20 22:14:00,23.4,11.5,30.13,NNW,346,5.0,6.0,60,0.00,,,0.00,Wunderground v.1.15,2013-03-21 02:14:00,
2013-03-20 22:17:00,27.2,12.7,30.15,West,279,3.0,4.0,54,0.00,,,0.00,Wunderground v.1.15,2013-03-21 02:17:00,
2013-03-20 22:18:00,23.7,11.8,30.13,NW,321,5.0,11.0,60,0.00,,,0.00,Wunderground v.1.15,2013-03-21 02:18:00,
2013-03-20 22:19:00,23.8,11.9,30.14,NW,313,5.0,11.0,60,0.00,,,0.00,Wunderground v.1.15,2013-03-21 02:19:00,
2013-03-20 22:21:00,27.1,12.6,30.15,NW,309,3.0,6.0,54,0.00,,,0.00,Wunderground v.1.15,2013-03-21 02:21:00,
2013-03-20 22:22:00,24.0,11.7,30.14,NNW,334,5.0,8.0,59,0.00,,,0.00,Wunderground v.1.15,2013-03-21 02:22:00,
2013-03-20 22:24:00,27.0,12.5,30.14,WNW,300,4.0,6.0,54,0.00,,,0.00,Wunderground v.1.15,2013-03-21 02:24:00,
2013-03-20 22:26:00,27.0,13.4,30.15,WNW,284,4.0,4.0,56,0.00,,,0.00,Wunderground v.1.15,2013-03-21 02:26:00,
2013-03-20 22:27:00,23.8,11.5,30.14,NNW,340,6.0,8.0,59,0.00,,,0.00,Wunderground v.1.15,2013-03-21 02:27:00,
2013-03-20 22:29:00,23.8,11.5,30.14,West,280,6.0,8.0,59,0.00,,,0.00,Wunderground v.1.15,2013-03-21 02:29:00,
2013-03-20 22:30:00,27.0,13.0,30.15,West,268,5.0,8.0,55,0.00,,,0.00,Wunderground v.1.15,2013-03-21 02:30:00,
2013-03-20 22:31:00,26.9,12.5,30.15,West,269,4.0,8.0,54,0.00,,,0.00,Wunderground v.1.15,2013-03-21 02:31:00,
2013-03-20 22:33:00,26.9,12.5,30.15,West,278,4.0,8.0,54,0.00,,,0.00,Wunderground v.1.15,2013-03-21 02:33:00,
2013-03-20 22:34:00,23.9,11.6,30.14,NW,321,5.0,7.0,59,0.00,,,0.00,Wunderground v.1.15,2013-03-21 02:34:00,
2013-03-20 22:37:00,26.9,12.9,30.15,West,271,4.0,5.0,55,0.00,,,0.00,Wunderground v.1.15,2013-03-21 02:37:00,
2013-03-20 22:38:00,26.9,12.9,30.15,West,271,4.0,5.0,55,0.00,,,0.00,Wunderground v.1.15,2013-03-21 02:38:00,
2013-03-20 22:44:00,26.8,12.8,30.15,WNW,298,4.0,5.0,55,0.00,,,0.00,Wunderground v.1.15,2013-03-21 02:44:00,
2013-03-20 22:52:00,26.7,12.7,30.15,West,273,5.0,7.0,55,0.00,,,0.00,Wunderground v.1.15,2013-03-21 02:52:00,
2013-03-20 22:53:00,24.8,12.5,30.15,NNW,333,5.0,6.0,59,0.00,,,0.00,Wunderground v.1.15,2013-03-21 02:53:00,
2013-03-20 22:57:00,26.5,12.5,30.15,WNW,303,4.0,5.0,55,0.00,,,0.00,Wunderground v.1.15,2013-03-21 02:57:00,
2013-03-20 23:02:00,26.3,13.1,30.15,West,269,3.0,5.0,57,0.00,,,0.00,Wunderground v.1.15,2013-03-21 03:02:00,
2013-03-20 23:09:00,26.1,13.3,30.15,WNW,292,3.0,5.0,58,0.00,,,0.00,Wunderground v.1.15,2013-03-21 03:09:00,
2013-03-20 23:13:00,24.9,12.2,30.15,NNW,329,5.0,8.0,58,0.00,,,0.00,Wunderground v.1.15,2013-03-21 03:13:00,
2013-03-20 23:14:00,24.9,12.2,30.16,NW,318,5.0,9.0,58,0.00,,,0.00,Wunderground v.1.15,2013-03-21 03:14:00,
2013-03-20 23:15:00,24.8,11.7,30.15,West,275,5.0,9.0,57,0.00,,,0.00,Wunderground v.1.15,2013-03-21 03:15:00,
2013-03-20 23:18:00,26.1,12.9,30.15,WNW,293,3.0,3.0,57,0.00,,,0.00,Wunderground v.1.15,2013-03-21 03:18:00,
2013-03-20 23:21:00,24.9,11.8,30.16,North,5,5.0,5.0,57,0.00,,,0.00,Wunderground v.1.15,2013-03-21 03:21:00,
2013-03-20 23:29:00,25.9,12.7,30.14,WNW,284,3.0,3.0,57,0.00,,,0.00,Wunderground v.1.15,2013-03-21 03:29:00,
2013-03-20 23:37:00,25.6,12.5,30.14,West,259,2.0,2.0,57,0.00,,,0.00,Wunderground v.1.15,2013-03-21 03:37:00,
2013-03-20 23:38:00,26.9,13.3,30.15,NNW,338,4.0,8.0,56,0.00,,,0.00,Wunderground v.1.15,2013-03-21 03:38:00,
2013-03-20 23:41:00,26.6,12.6,30.15,WNW,300,4.0,5.0,55,0.00,,,0.00,Wunderground v.1.15,2013-03-21 03:41:00,
2013-03-20 23:44:00,26.2,11.4,30.16,NW,304,4.0,5.0,53,0.00,,,0.00,Wunderground v.1.15,2013-03-21 03:44:00,
2013-03-20 23:47:00,25.3,12.6,30.14,West,267,2.0,2.0,58,0.00,,,0.00,Wunderground v.1.15,2013-03-21 03:47:00,
2013-03-20 23:52:00,25.2,12.9,30.14,WNW,284,2.0,3.0,59,0.00,,,0.00,Wunderground v.1.15,2013-03-21 03:52:00,
2013-03-20 23:53:00,25.1,12.8,30.14,WNW,290,2.0,3.0,59,0.00,,,0.00,Wunderground v.1.15,2013-03-21 03:53:00,
2013-03-20 23:58:00,25.0,13.1,30.14,West,278,2.0,2.0,60,0.00,,,0.00,Wunderground v.1.15,2013-03-21 03:58:00,